<?xml version="1.0" encoding="UTF-8" standalone="no" ?>
<gpx xmlns="http://www.topografix.com/GPX/1/1" xmlns:xsi="http://www.w3.org/2001/XMLSchema-instance" xsi:schemaLocation="http://www.topografix.com/GPX/1/1 http://www.topografix.com/GPX/1/1/gpx.xsd" version="1.1" creator="VisuGPX - https://www.visugpx.com">
  <metadata>
    <name>Lussault sur Loire</name>
    <desc><![CDATA[Randonnée dans la partie ouest de la forêt d'Amboise.]]></desc>
  </metadata>
  <trk>
    <name><![CDATA[randogps37-149]]></name>
    <trkseg>
      <trkpt lat="47.39877" lon="0.92506">
        <ele>55.89</ele>
        <time>2019-04-09T07:19:43Z</time>
      </trkpt>
      <trkpt lat="47.39875" lon="0.9251">
        <ele>55.89</ele>
        <time>2019-04-09T07:20:11Z</time>
      </trkpt>
      <trkpt lat="47.39875" lon="0.9251">
        <ele>56.37</ele>
        <time>2019-04-09T07:20:31Z</time>
      </trkpt>
      <trkpt lat="47.39874" lon="0.92513">
        <ele>56.37</ele>
        <time>2019-04-09T07:20:54Z</time>
      </trkpt>
      <trkpt lat="47.39878" lon="0.92507">
        <ele>56.37</ele>
        <time>2019-04-09T07:21:12Z</time>
      </trkpt>
      <trkpt lat="47.39875" lon="0.92509">
        <ele>56.86</ele>
        <time>2019-04-09T07:21:38Z</time>
      </trkpt>
      <trkpt lat="47.39874" lon="0.92512">
        <ele>56.86</ele>
        <time>2019-04-09T07:21:55Z</time>
      </trkpt>
      <trkpt lat="47.39855" lon="0.92523">
        <ele>59.74</ele>
        <time>2019-04-09T07:22:12Z</time>
      </trkpt>
      <trkpt lat="47.39849" lon="0.92498">
        <ele>61.18</ele>
        <time>2019-04-09T07:22:26Z</time>
      </trkpt>
      <trkpt lat="47.39847" lon="0.92472">
        <ele>60.7</ele>
        <time>2019-04-09T07:22:41Z</time>
      </trkpt>
      <trkpt lat="47.39843" lon="0.92476">
        <ele>60.7</ele>
        <time>2019-04-09T07:23:04Z</time>
      </trkpt>
      <trkpt lat="47.39843" lon="0.92478">
        <ele>60.7</ele>
        <time>2019-04-09T07:23:09Z</time>
      </trkpt>
      <trkpt lat="47.39836" lon="0.92479">
        <ele>60.7</ele>
        <time>2019-04-09T07:23:16Z</time>
      </trkpt>
      <trkpt lat="47.39837" lon="0.92493">
        <ele>60.7</ele>
        <time>2019-04-09T07:23:24Z</time>
      </trkpt>
      <trkpt lat="47.39838" lon="0.92501">
        <ele>60.7</ele>
        <time>2019-04-09T07:23:28Z</time>
      </trkpt>
      <trkpt lat="47.3984" lon="0.92536">
        <ele>60.7</ele>
        <time>2019-04-09T07:23:45Z</time>
      </trkpt>
      <trkpt lat="47.39845" lon="0.92547">
        <ele>60.7</ele>
        <time>2019-04-09T07:23:52Z</time>
      </trkpt>
      <trkpt lat="47.39834" lon="0.92556">
        <ele>64.07</ele>
        <time>2019-04-09T07:24:05Z</time>
      </trkpt>
      <trkpt lat="47.39827" lon="0.92566">
        <ele>67.43</ele>
        <time>2019-04-09T07:24:17Z</time>
      </trkpt>
      <trkpt lat="47.39819" lon="0.92574">
        <ele>69.35</ele>
        <time>2019-04-09T07:24:29Z</time>
      </trkpt>
      <trkpt lat="47.39807" lon="0.92582">
        <ele>71.27</ele>
        <time>2019-04-09T07:24:43Z</time>
      </trkpt>
      <trkpt lat="47.39799" lon="0.92588">
        <ele>73.68</ele>
        <time>2019-04-09T07:24:58Z</time>
      </trkpt>
      <trkpt lat="47.39792" lon="0.92593">
        <ele>76.08</ele>
        <time>2019-04-09T07:25:13Z</time>
      </trkpt>
      <trkpt lat="47.3978" lon="0.92599">
        <ele>78.48</ele>
        <time>2019-04-09T07:25:28Z</time>
      </trkpt>
      <trkpt lat="47.39779" lon="0.92599">
        <ele>78.48</ele>
        <time>2019-04-09T07:25:29Z</time>
      </trkpt>
      <trkpt lat="47.39767" lon="0.92607">
        <ele>80.41</ele>
        <time>2019-04-09T07:25:42Z</time>
      </trkpt>
      <trkpt lat="47.39752" lon="0.92619">
        <ele>81.37</ele>
        <time>2019-04-09T07:25:57Z</time>
      </trkpt>
      <trkpt lat="47.39751" lon="0.92619">
        <ele>81.37</ele>
        <time>2019-04-09T07:25:58Z</time>
      </trkpt>
      <trkpt lat="47.39741" lon="0.92622">
        <ele>82.33</ele>
        <time>2019-04-09T07:26:11Z</time>
      </trkpt>
      <trkpt lat="47.39741" lon="0.92622">
        <ele>82.33</ele>
        <time>2019-04-09T07:26:12Z</time>
      </trkpt>
      <trkpt lat="47.3974" lon="0.92623">
        <ele>82.33</ele>
        <time>2019-04-09T07:26:14Z</time>
      </trkpt>
      <trkpt lat="47.39726" lon="0.92627">
        <ele>82.81</ele>
        <time>2019-04-09T07:26:28Z</time>
      </trkpt>
      <trkpt lat="47.39713" lon="0.92631">
        <ele>83.29</ele>
        <time>2019-04-09T07:26:41Z</time>
      </trkpt>
      <trkpt lat="47.39711" lon="0.92634">
        <ele>83.29</ele>
        <time>2019-04-09T07:26:44Z</time>
      </trkpt>
      <trkpt lat="47.39711" lon="0.92638">
        <ele>83.29</ele>
        <time>2019-04-09T07:26:47Z</time>
      </trkpt>
      <trkpt lat="47.39711" lon="0.92645">
        <ele>83.29</ele>
        <time>2019-04-09T07:26:52Z</time>
      </trkpt>
      <trkpt lat="47.39713" lon="0.92673">
        <ele>83.77</ele>
        <time>2019-04-09T07:27:08Z</time>
      </trkpt>
      <trkpt lat="47.39713" lon="0.92677">
        <ele>84.25</ele>
        <time>2019-04-09T07:27:10Z</time>
      </trkpt>
      <trkpt lat="47.39712" lon="0.92692">
        <ele>84.25</ele>
        <time>2019-04-09T07:27:23Z</time>
      </trkpt>
      <trkpt lat="47.39711" lon="0.92695">
        <ele>84.73</ele>
        <time>2019-04-09T07:27:26Z</time>
      </trkpt>
      <trkpt lat="47.39713" lon="0.92703">
        <ele>84.73</ele>
        <time>2019-04-09T07:27:31Z</time>
      </trkpt>
      <trkpt lat="47.39713" lon="0.9271">
        <ele>84.73</ele>
        <time>2019-04-09T07:27:35Z</time>
      </trkpt>
      <trkpt lat="47.39714" lon="0.92754">
        <ele>85.21</ele>
        <time>2019-04-09T07:27:58Z</time>
      </trkpt>
      <trkpt lat="47.39717" lon="0.92777">
        <ele>85.21</ele>
        <time>2019-04-09T07:28:10Z</time>
      </trkpt>
      <trkpt lat="47.39716" lon="0.92781">
        <ele>85.21</ele>
        <time>2019-04-09T07:28:13Z</time>
      </trkpt>
      <trkpt lat="47.39717" lon="0.9281">
        <ele>85.69</ele>
        <time>2019-04-09T07:28:28Z</time>
      </trkpt>
      <trkpt lat="47.39718" lon="0.92841">
        <ele>84.73</ele>
        <time>2019-04-09T07:28:44Z</time>
      </trkpt>
      <trkpt lat="47.39722" lon="0.92872">
        <ele>84.73</ele>
        <time>2019-04-09T07:29:00Z</time>
      </trkpt>
      <trkpt lat="47.39721" lon="0.92873">
        <ele>84.73</ele>
        <time>2019-04-09T07:29:05Z</time>
      </trkpt>
      <trkpt lat="47.39724" lon="0.92896">
        <ele>83.77</ele>
        <time>2019-04-09T07:29:18Z</time>
      </trkpt>
      <trkpt lat="47.39726" lon="0.92935">
        <ele>81.85</ele>
        <time>2019-04-09T07:29:37Z</time>
      </trkpt>
      <trkpt lat="47.39718" lon="0.92964">
        <ele>80.41</ele>
        <time>2019-04-09T07:29:53Z</time>
      </trkpt>
      <trkpt lat="47.39703" lon="0.92975">
        <ele>80.41</ele>
        <time>2019-04-09T07:30:07Z</time>
      </trkpt>
      <trkpt lat="47.39688" lon="0.92991">
        <ele>80.41</ele>
        <time>2019-04-09T07:30:21Z</time>
      </trkpt>
      <trkpt lat="47.39669" lon="0.93015">
        <ele>80.89</ele>
        <time>2019-04-09T07:30:40Z</time>
      </trkpt>
      <trkpt lat="47.39663" lon="0.93023">
        <ele>81.37</ele>
        <time>2019-04-09T07:30:52Z</time>
      </trkpt>
      <trkpt lat="47.39662" lon="0.93027">
        <ele>81.37</ele>
        <time>2019-04-09T07:31:05Z</time>
      </trkpt>
      <trkpt lat="47.39654" lon="0.93048">
        <ele>82.33</ele>
        <time>2019-04-09T07:31:19Z</time>
      </trkpt>
      <trkpt lat="47.39652" lon="0.93053">
        <ele>82.33</ele>
        <time>2019-04-09T07:31:24Z</time>
      </trkpt>
      <trkpt lat="47.39642" lon="0.93074">
        <ele>82.81</ele>
        <time>2019-04-09T07:31:37Z</time>
      </trkpt>
      <trkpt lat="47.39632" lon="0.9311">
        <ele>84.25</ele>
        <time>2019-04-09T07:31:56Z</time>
      </trkpt>
      <trkpt lat="47.3963" lon="0.93122">
        <ele>84.73</ele>
        <time>2019-04-09T07:32:02Z</time>
      </trkpt>
      <trkpt lat="47.39629" lon="0.93123">
        <ele>85.21</ele>
        <time>2019-04-09T07:32:06Z</time>
      </trkpt>
      <trkpt lat="47.39627" lon="0.93151">
        <ele>86.18</ele>
        <time>2019-04-09T07:32:21Z</time>
      </trkpt>
      <trkpt lat="47.39627" lon="0.93179">
        <ele>87.62</ele>
        <time>2019-04-09T07:32:37Z</time>
      </trkpt>
      <trkpt lat="47.39627" lon="0.93186">
        <ele>87.62</ele>
        <time>2019-04-09T07:32:47Z</time>
      </trkpt>
      <trkpt lat="47.39625" lon="0.93186">
        <ele>87.14</ele>
        <time>2019-04-09T07:32:57Z</time>
      </trkpt>
      <trkpt lat="47.3963" lon="0.93181">
        <ele>87.14</ele>
        <time>2019-04-09T07:33:02Z</time>
      </trkpt>
      <trkpt lat="47.39652" lon="0.93178">
        <ele>86.18</ele>
        <time>2019-04-09T07:33:17Z</time>
      </trkpt>
      <trkpt lat="47.3967" lon="0.93174">
        <ele>85.21</ele>
        <time>2019-04-09T07:33:31Z</time>
      </trkpt>
      <trkpt lat="47.3969" lon="0.93182">
        <ele>82.33</ele>
        <time>2019-04-09T07:33:47Z</time>
      </trkpt>
      <trkpt lat="47.39691" lon="0.93183">
        <ele>81.85</ele>
        <time>2019-04-09T07:33:48Z</time>
      </trkpt>
      <trkpt lat="47.39701" lon="0.93206">
        <ele>79.93</ele>
        <time>2019-04-09T07:34:04Z</time>
      </trkpt>
      <trkpt lat="47.39709" lon="0.93231">
        <ele>78.48</ele>
        <time>2019-04-09T07:34:18Z</time>
      </trkpt>
      <trkpt lat="47.39718" lon="0.93264">
        <ele>77.04</ele>
        <time>2019-04-09T07:34:36Z</time>
      </trkpt>
      <trkpt lat="47.39719" lon="0.93284">
        <ele>75.6</ele>
        <time>2019-04-09T07:34:51Z</time>
      </trkpt>
      <trkpt lat="47.39724" lon="0.93304">
        <ele>75.12</ele>
        <time>2019-04-09T07:35:05Z</time>
      </trkpt>
      <trkpt lat="47.39725" lon="0.93308">
        <ele>75.12</ele>
        <time>2019-04-09T07:35:07Z</time>
      </trkpt>
      <trkpt lat="47.39726" lon="0.9332">
        <ele>75.12</ele>
        <time>2019-04-09T07:35:13Z</time>
      </trkpt>
      <trkpt lat="47.39729" lon="0.93336">
        <ele>74.64</ele>
        <time>2019-04-09T07:35:23Z</time>
      </trkpt>
      <trkpt lat="47.3973" lon="0.93338">
        <ele>74.64</ele>
        <time>2019-04-09T07:35:25Z</time>
      </trkpt>
      <trkpt lat="47.39735" lon="0.93343">
        <ele>73.68</ele>
        <time>2019-04-09T07:35:30Z</time>
      </trkpt>
      <trkpt lat="47.39742" lon="0.93346">
        <ele>72.72</ele>
        <time>2019-04-09T07:35:39Z</time>
      </trkpt>
      <trkpt lat="47.39751" lon="0.93345">
        <ele>72.24</ele>
        <time>2019-04-09T07:35:45Z</time>
      </trkpt>
      <trkpt lat="47.39773" lon="0.93343">
        <ele>69.83</ele>
        <time>2019-04-09T07:36:01Z</time>
      </trkpt>
      <trkpt lat="47.39793" lon="0.93337">
        <ele>67.91</ele>
        <time>2019-04-09T07:36:16Z</time>
      </trkpt>
      <trkpt lat="47.39799" lon="0.93322">
        <ele>67.43</ele>
        <time>2019-04-09T07:36:25Z</time>
      </trkpt>
      <trkpt lat="47.39798" lon="0.93314">
        <ele>67.43</ele>
        <time>2019-04-09T07:36:31Z</time>
      </trkpt>
      <trkpt lat="47.39793" lon="0.93296">
        <ele>67.91</ele>
        <time>2019-04-09T07:36:43Z</time>
      </trkpt>
      <trkpt lat="47.39791" lon="0.93285">
        <ele>67.91</ele>
        <time>2019-04-09T07:36:49Z</time>
      </trkpt>
      <trkpt lat="47.39802" lon="0.93268">
        <ele>66.95</ele>
        <time>2019-04-09T07:37:01Z</time>
      </trkpt>
      <trkpt lat="47.39819" lon="0.93265">
        <ele>65.03</ele>
        <time>2019-04-09T07:37:13Z</time>
      </trkpt>
      <trkpt lat="47.39844" lon="0.93258">
        <ele>63.1</ele>
        <time>2019-04-09T07:37:31Z</time>
      </trkpt>
      <trkpt lat="47.39868" lon="0.93251">
        <ele>61.18</ele>
        <time>2019-04-09T07:37:47Z</time>
      </trkpt>
      <trkpt lat="47.39887" lon="0.93243">
        <ele>60.22</ele>
        <time>2019-04-09T07:38:03Z</time>
      </trkpt>
      <trkpt lat="47.39895" lon="0.9324">
        <ele>59.74</ele>
        <time>2019-04-09T07:38:09Z</time>
      </trkpt>
      <trkpt lat="47.39914" lon="0.93239">
        <ele>59.26</ele>
        <time>2019-04-09T07:38:24Z</time>
      </trkpt>
      <trkpt lat="47.39914" lon="0.93248">
        <ele>59.26</ele>
        <time>2019-04-09T07:38:36Z</time>
      </trkpt>
      <trkpt lat="47.39909" lon="0.93256">
        <ele>60.22</ele>
        <time>2019-04-09T07:38:47Z</time>
      </trkpt>
      <trkpt lat="47.39901" lon="0.93271">
        <ele>61.66</ele>
        <time>2019-04-09T07:38:59Z</time>
      </trkpt>
      <trkpt lat="47.39891" lon="0.93297">
        <ele>65.03</ele>
        <time>2019-04-09T07:39:17Z</time>
      </trkpt>
      <trkpt lat="47.39882" lon="0.93321">
        <ele>67.43</ele>
        <time>2019-04-09T07:39:30Z</time>
      </trkpt>
      <trkpt lat="47.39875" lon="0.93345">
        <ele>69.83</ele>
        <time>2019-04-09T07:39:44Z</time>
      </trkpt>
      <trkpt lat="47.39868" lon="0.93371">
        <ele>72.24</ele>
        <time>2019-04-09T07:40:00Z</time>
      </trkpt>
      <trkpt lat="47.39864" lon="0.93391">
        <ele>74.16</ele>
        <time>2019-04-09T07:40:15Z</time>
      </trkpt>
      <trkpt lat="47.39861" lon="0.93399">
        <ele>74.16</ele>
        <time>2019-04-09T07:40:37Z</time>
      </trkpt>
      <trkpt lat="47.39861" lon="0.93397">
        <ele>74.64</ele>
        <time>2019-04-09T07:40:40Z</time>
      </trkpt>
      <trkpt lat="47.39859" lon="0.93405">
        <ele>74.64</ele>
        <time>2019-04-09T07:40:51Z</time>
      </trkpt>
      <trkpt lat="47.39854" lon="0.93415">
        <ele>74.16</ele>
        <time>2019-04-09T07:41:04Z</time>
      </trkpt>
      <trkpt lat="47.39847" lon="0.93432">
        <ele>72.72</ele>
        <time>2019-04-09T07:41:18Z</time>
      </trkpt>
      <trkpt lat="47.3984" lon="0.93446">
        <ele>71.76</ele>
        <time>2019-04-09T07:41:31Z</time>
      </trkpt>
      <trkpt lat="47.39831" lon="0.93458">
        <ele>71.27</ele>
        <time>2019-04-09T07:41:42Z</time>
      </trkpt>
      <trkpt lat="47.39821" lon="0.93476">
        <ele>70.79</ele>
        <time>2019-04-09T07:41:54Z</time>
      </trkpt>
      <trkpt lat="47.39818" lon="0.93482">
        <ele>70.79</ele>
        <time>2019-04-09T07:41:58Z</time>
      </trkpt>
      <trkpt lat="47.39808" lon="0.93495">
        <ele>70.79</ele>
        <time>2019-04-09T07:42:07Z</time>
      </trkpt>
      <trkpt lat="47.39806" lon="0.93504">
        <ele>70.79</ele>
        <time>2019-04-09T07:42:12Z</time>
      </trkpt>
      <trkpt lat="47.39804" lon="0.9353">
        <ele>70.79</ele>
        <time>2019-04-09T07:42:25Z</time>
      </trkpt>
      <trkpt lat="47.39804" lon="0.93536">
        <ele>70.79</ele>
        <time>2019-04-09T07:42:28Z</time>
      </trkpt>
      <trkpt lat="47.39804" lon="0.93547">
        <ele>71.27</ele>
        <time>2019-04-09T07:42:34Z</time>
      </trkpt>
      <trkpt lat="47.39805" lon="0.93558">
        <ele>71.27</ele>
        <time>2019-04-09T07:42:40Z</time>
      </trkpt>
      <trkpt lat="47.39802" lon="0.9358">
        <ele>72.24</ele>
        <time>2019-04-09T07:42:55Z</time>
      </trkpt>
      <trkpt lat="47.39809" lon="0.93595">
        <ele>72.72</ele>
        <time>2019-04-09T07:43:03Z</time>
      </trkpt>
      <trkpt lat="47.3981" lon="0.936">
        <ele>72.72</ele>
        <time>2019-04-09T07:43:05Z</time>
      </trkpt>
      <trkpt lat="47.39823" lon="0.93626">
        <ele>73.68</ele>
        <time>2019-04-09T07:43:20Z</time>
      </trkpt>
      <trkpt lat="47.39832" lon="0.93648">
        <ele>74.16</ele>
        <time>2019-04-09T07:43:33Z</time>
      </trkpt>
      <trkpt lat="47.39837" lon="0.93658">
        <ele>74.64</ele>
        <time>2019-04-09T07:43:39Z</time>
      </trkpt>
      <trkpt lat="47.39843" lon="0.93685">
        <ele>75.6</ele>
        <time>2019-04-09T07:43:54Z</time>
      </trkpt>
      <trkpt lat="47.39843" lon="0.93687">
        <ele>75.6</ele>
        <time>2019-04-09T07:43:55Z</time>
      </trkpt>
      <trkpt lat="47.39843" lon="0.93714">
        <ele>76.56</ele>
        <time>2019-04-09T07:44:10Z</time>
      </trkpt>
      <trkpt lat="47.39843" lon="0.93718">
        <ele>76.08</ele>
        <time>2019-04-09T07:44:12Z</time>
      </trkpt>
      <trkpt lat="47.39839" lon="0.93751">
        <ele>77.04</ele>
        <time>2019-04-09T07:44:31Z</time>
      </trkpt>
      <trkpt lat="47.39834" lon="0.93763">
        <ele>78</ele>
        <time>2019-04-09T07:44:39Z</time>
      </trkpt>
      <trkpt lat="47.39832" lon="0.93769">
        <ele>77.52</ele>
        <time>2019-04-09T07:44:43Z</time>
      </trkpt>
      <trkpt lat="47.39822" lon="0.93798">
        <ele>78</ele>
        <time>2019-04-09T07:45:02Z</time>
      </trkpt>
      <trkpt lat="47.39817" lon="0.938">
        <ele>77.52</ele>
        <time>2019-04-09T07:45:14Z</time>
      </trkpt>
      <trkpt lat="47.39814" lon="0.93801">
        <ele>77.04</ele>
        <time>2019-04-09T07:45:17Z</time>
      </trkpt>
      <trkpt lat="47.3981" lon="0.93802">
        <ele>76.08</ele>
        <time>2019-04-09T07:45:21Z</time>
      </trkpt>
      <trkpt lat="47.39801" lon="0.93806">
        <ele>75.6</ele>
        <time>2019-04-09T07:45:29Z</time>
      </trkpt>
      <trkpt lat="47.39793" lon="0.93813">
        <ele>75.6</ele>
        <time>2019-04-09T07:45:40Z</time>
      </trkpt>
      <trkpt lat="47.3979" lon="0.93817">
        <ele>75.12</ele>
        <time>2019-04-09T07:45:46Z</time>
      </trkpt>
      <trkpt lat="47.39789" lon="0.93818">
        <ele>75.12</ele>
        <time>2019-04-09T07:45:48Z</time>
      </trkpt>
      <trkpt lat="47.39779" lon="0.93826">
        <ele>75.12</ele>
        <time>2019-04-09T07:45:59Z</time>
      </trkpt>
      <trkpt lat="47.39767" lon="0.93831">
        <ele>75.6</ele>
        <time>2019-04-09T07:46:10Z</time>
      </trkpt>
      <trkpt lat="47.39756" lon="0.9383">
        <ele>75.6</ele>
        <time>2019-04-09T07:46:18Z</time>
      </trkpt>
      <trkpt lat="47.3975" lon="0.93829">
        <ele>75.6</ele>
        <time>2019-04-09T07:46:22Z</time>
      </trkpt>
      <trkpt lat="47.39742" lon="0.93835">
        <ele>76.08</ele>
        <time>2019-04-09T07:46:29Z</time>
      </trkpt>
      <trkpt lat="47.39728" lon="0.93855">
        <ele>77.04</ele>
        <time>2019-04-09T07:46:44Z</time>
      </trkpt>
      <trkpt lat="47.39718" lon="0.9388">
        <ele>78.97</ele>
        <time>2019-04-09T07:47:01Z</time>
      </trkpt>
      <trkpt lat="47.39717" lon="0.93881">
        <ele>79.45</ele>
        <time>2019-04-09T07:47:02Z</time>
      </trkpt>
      <trkpt lat="47.39715" lon="0.93886">
        <ele>79.93</ele>
        <time>2019-04-09T07:47:06Z</time>
      </trkpt>
      <trkpt lat="47.39702" lon="0.93903">
        <ele>81.37</ele>
        <time>2019-04-09T07:47:20Z</time>
      </trkpt>
      <trkpt lat="47.39686" lon="0.93912">
        <ele>80.41</ele>
        <time>2019-04-09T07:47:33Z</time>
      </trkpt>
      <trkpt lat="47.39666" lon="0.93924">
        <ele>78.97</ele>
        <time>2019-04-09T07:47:49Z</time>
      </trkpt>
      <trkpt lat="47.39656" lon="0.93934">
        <ele>78</ele>
        <time>2019-04-09T07:48:03Z</time>
      </trkpt>
      <trkpt lat="47.39657" lon="0.93934">
        <ele>78.48</ele>
        <time>2019-04-09T07:48:04Z</time>
      </trkpt>
      <trkpt lat="47.3966" lon="0.93955">
        <ele>79.93</ele>
        <time>2019-04-09T07:48:18Z</time>
      </trkpt>
      <trkpt lat="47.39666" lon="0.9399">
        <ele>80.89</ele>
        <time>2019-04-09T07:48:36Z</time>
      </trkpt>
      <trkpt lat="47.3967" lon="0.94018">
        <ele>82.33</ele>
        <time>2019-04-09T07:48:51Z</time>
      </trkpt>
      <trkpt lat="47.3967" lon="0.94035">
        <ele>82.81</ele>
        <time>2019-04-09T07:49:02Z</time>
      </trkpt>
      <trkpt lat="47.39669" lon="0.94044">
        <ele>83.29</ele>
        <time>2019-04-09T07:49:07Z</time>
      </trkpt>
      <trkpt lat="47.39669" lon="0.94053">
        <ele>83.77</ele>
        <time>2019-04-09T07:49:12Z</time>
      </trkpt>
      <trkpt lat="47.39674" lon="0.94081">
        <ele>85.21</ele>
        <time>2019-04-09T07:49:27Z</time>
      </trkpt>
      <trkpt lat="47.39675" lon="0.9409">
        <ele>85.69</ele>
        <time>2019-04-09T07:49:32Z</time>
      </trkpt>
      <trkpt lat="47.39678" lon="0.94104">
        <ele>86.18</ele>
        <time>2019-04-09T07:49:39Z</time>
      </trkpt>
      <trkpt lat="47.39684" lon="0.94118">
        <ele>87.14</ele>
        <time>2019-04-09T07:49:49Z</time>
      </trkpt>
      <trkpt lat="47.39692" lon="0.94142">
        <ele>88.1</ele>
        <time>2019-04-09T07:50:04Z</time>
      </trkpt>
      <trkpt lat="47.397" lon="0.94162">
        <ele>88.58</ele>
        <time>2019-04-09T07:50:17Z</time>
      </trkpt>
      <trkpt lat="47.39696" lon="0.94171">
        <ele>89.06</ele>
        <time>2019-04-09T07:50:31Z</time>
      </trkpt>
      <trkpt lat="47.39696" lon="0.94171">
        <ele>89.06</ele>
        <time>2019-04-09T07:50:47Z</time>
      </trkpt>
      <trkpt lat="47.39693" lon="0.94169">
        <ele>89.06</ele>
        <time>2019-04-09T07:51:07Z</time>
      </trkpt>
      <trkpt lat="47.39695" lon="0.94168">
        <ele>89.06</ele>
        <time>2019-04-09T07:51:26Z</time>
      </trkpt>
      <trkpt lat="47.39697" lon="0.9417">
        <ele>89.06</ele>
        <time>2019-04-09T07:51:43Z</time>
      </trkpt>
      <trkpt lat="47.39693" lon="0.94174">
        <ele>90.5</ele>
        <time>2019-04-09T07:52:03Z</time>
      </trkpt>
      <trkpt lat="47.39693" lon="0.94175">
        <ele>89.54</ele>
        <time>2019-04-09T07:52:04Z</time>
      </trkpt>
      <trkpt lat="47.39687" lon="0.94188">
        <ele>89.06</ele>
        <time>2019-04-09T07:52:12Z</time>
      </trkpt>
      <trkpt lat="47.39675" lon="0.94213">
        <ele>89.06</ele>
        <time>2019-04-09T07:52:28Z</time>
      </trkpt>
      <trkpt lat="47.39662" lon="0.9424">
        <ele>89.06</ele>
        <time>2019-04-09T07:52:46Z</time>
      </trkpt>
      <trkpt lat="47.3965" lon="0.94264">
        <ele>89.06</ele>
        <time>2019-04-09T07:53:03Z</time>
      </trkpt>
      <trkpt lat="47.39634" lon="0.94291">
        <ele>89.06</ele>
        <time>2019-04-09T07:53:22Z</time>
      </trkpt>
      <trkpt lat="47.39612" lon="0.94331">
        <ele>88.58</ele>
        <time>2019-04-09T07:53:46Z</time>
      </trkpt>
      <trkpt lat="47.396" lon="0.94349">
        <ele>88.58</ele>
        <time>2019-04-09T07:53:59Z</time>
      </trkpt>
      <trkpt lat="47.39584" lon="0.94377">
        <ele>89.06</ele>
        <time>2019-04-09T07:54:19Z</time>
      </trkpt>
      <trkpt lat="47.39575" lon="0.94395">
        <ele>89.54</ele>
        <time>2019-04-09T07:54:32Z</time>
      </trkpt>
      <trkpt lat="47.39572" lon="0.94402">
        <ele>89.54</ele>
        <time>2019-04-09T07:54:37Z</time>
      </trkpt>
      <trkpt lat="47.39554" lon="0.94437">
        <ele>90.02</ele>
        <time>2019-04-09T07:54:58Z</time>
      </trkpt>
      <trkpt lat="47.39543" lon="0.9446">
        <ele>90.5</ele>
        <time>2019-04-09T07:55:15Z</time>
      </trkpt>
      <trkpt lat="47.39531" lon="0.94483">
        <ele>91.46</ele>
        <time>2019-04-09T07:55:30Z</time>
      </trkpt>
      <trkpt lat="47.39517" lon="0.94508">
        <ele>91.94</ele>
        <time>2019-04-09T07:55:47Z</time>
      </trkpt>
      <trkpt lat="47.39504" lon="0.94532">
        <ele>92.9</ele>
        <time>2019-04-09T07:56:03Z</time>
      </trkpt>
      <trkpt lat="47.39496" lon="0.94547">
        <ele>93.39</ele>
        <time>2019-04-09T07:56:13Z</time>
      </trkpt>
      <trkpt lat="47.39492" lon="0.94552">
        <ele>93.87</ele>
        <time>2019-04-09T07:56:17Z</time>
      </trkpt>
      <trkpt lat="47.39479" lon="0.94576">
        <ele>94.83</ele>
        <time>2019-04-09T07:56:35Z</time>
      </trkpt>
      <trkpt lat="47.39467" lon="0.94603">
        <ele>96.27</ele>
        <time>2019-04-09T07:56:54Z</time>
      </trkpt>
      <trkpt lat="47.39454" lon="0.94627">
        <ele>97.23</ele>
        <time>2019-04-09T07:57:11Z</time>
      </trkpt>
      <trkpt lat="47.39441" lon="0.94652">
        <ele>99.15</ele>
        <time>2019-04-09T07:57:28Z</time>
      </trkpt>
      <trkpt lat="47.39428" lon="0.94674">
        <ele>100.11</ele>
        <time>2019-04-09T07:57:44Z</time>
      </trkpt>
      <trkpt lat="47.39417" lon="0.94696">
        <ele>101.56</ele>
        <time>2019-04-09T07:58:00Z</time>
      </trkpt>
      <trkpt lat="47.39414" lon="0.94701">
        <ele>102.04</ele>
        <time>2019-04-09T07:58:04Z</time>
      </trkpt>
      <trkpt lat="47.39406" lon="0.94715">
        <ele>102.52</ele>
        <time>2019-04-09T07:58:15Z</time>
      </trkpt>
      <trkpt lat="47.39403" lon="0.94719">
        <ele>102.52</ele>
        <time>2019-04-09T07:58:18Z</time>
      </trkpt>
      <trkpt lat="47.39394" lon="0.94736">
        <ele>103.96</ele>
        <time>2019-04-09T07:58:31Z</time>
      </trkpt>
      <trkpt lat="47.39393" lon="0.94739">
        <ele>103.96</ele>
        <time>2019-04-09T07:58:33Z</time>
      </trkpt>
      <trkpt lat="47.39387" lon="0.94748">
        <ele>104.44</ele>
        <time>2019-04-09T07:58:45Z</time>
      </trkpt>
      <trkpt lat="47.39386" lon="0.94751">
        <ele>104.44</ele>
        <time>2019-04-09T07:58:57Z</time>
      </trkpt>
      <trkpt lat="47.39381" lon="0.94757">
        <ele>104.92</ele>
        <time>2019-04-09T07:59:14Z</time>
      </trkpt>
      <trkpt lat="47.39378" lon="0.94759">
        <ele>104.92</ele>
        <time>2019-04-09T07:59:25Z</time>
      </trkpt>
      <trkpt lat="47.39376" lon="0.94761">
        <ele>105.4</ele>
        <time>2019-04-09T07:59:41Z</time>
      </trkpt>
      <trkpt lat="47.39378" lon="0.94761">
        <ele>105.4</ele>
        <time>2019-04-09T07:59:52Z</time>
      </trkpt>
      <trkpt lat="47.39378" lon="0.94761">
        <ele>105.4</ele>
        <time>2019-04-09T07:59:53Z</time>
      </trkpt>
      <trkpt lat="47.39375" lon="0.9476">
        <ele>105.4</ele>
        <time>2019-04-09T08:00:04Z</time>
      </trkpt>
      <trkpt lat="47.39374" lon="0.94758">
        <ele>105.4</ele>
        <time>2019-04-09T08:00:15Z</time>
      </trkpt>
      <trkpt lat="47.39372" lon="0.94762">
        <ele>105.4</ele>
        <time>2019-04-09T08:00:27Z</time>
      </trkpt>
      <trkpt lat="47.39371" lon="0.94764">
        <ele>105.4</ele>
        <time>2019-04-09T08:00:29Z</time>
      </trkpt>
      <trkpt lat="47.39367" lon="0.94766">
        <ele>105.4</ele>
        <time>2019-04-09T08:00:32Z</time>
      </trkpt>
      <trkpt lat="47.3935" lon="0.94782">
        <ele>105.88</ele>
        <time>2019-04-09T08:00:48Z</time>
      </trkpt>
      <trkpt lat="47.3933" lon="0.948">
        <ele>106.36</ele>
        <time>2019-04-09T08:01:07Z</time>
      </trkpt>
      <trkpt lat="47.39313" lon="0.94813">
        <ele>106.84</ele>
        <time>2019-04-09T08:01:23Z</time>
      </trkpt>
      <trkpt lat="47.39293" lon="0.9483">
        <ele>107.32</ele>
        <time>2019-04-09T08:01:41Z</time>
      </trkpt>
      <trkpt lat="47.39272" lon="0.94849">
        <ele>107.32</ele>
        <time>2019-04-09T08:02:00Z</time>
      </trkpt>
      <trkpt lat="47.39252" lon="0.94866">
        <ele>107.81</ele>
        <time>2019-04-09T08:02:19Z</time>
      </trkpt>
      <trkpt lat="47.39228" lon="0.94882">
        <ele>107.32</ele>
        <time>2019-04-09T08:02:40Z</time>
      </trkpt>
      <trkpt lat="47.39224" lon="0.94884">
        <ele>107.81</ele>
        <time>2019-04-09T08:02:44Z</time>
      </trkpt>
      <trkpt lat="47.39218" lon="0.94888">
        <ele>107.81</ele>
        <time>2019-04-09T08:02:50Z</time>
      </trkpt>
      <trkpt lat="47.39197" lon="0.94904">
        <ele>107.32</ele>
        <time>2019-04-09T08:03:09Z</time>
      </trkpt>
      <trkpt lat="47.39175" lon="0.94913">
        <ele>107.32</ele>
        <time>2019-04-09T08:03:28Z</time>
      </trkpt>
      <trkpt lat="47.39156" lon="0.94916">
        <ele>106.84</ele>
        <time>2019-04-09T08:03:44Z</time>
      </trkpt>
      <trkpt lat="47.39135" lon="0.94913">
        <ele>106.36</ele>
        <time>2019-04-09T08:04:01Z</time>
      </trkpt>
      <trkpt lat="47.39113" lon="0.9491">
        <ele>106.36</ele>
        <time>2019-04-09T08:04:19Z</time>
      </trkpt>
      <trkpt lat="47.39106" lon="0.94908">
        <ele>106.36</ele>
        <time>2019-04-09T08:04:25Z</time>
      </trkpt>
      <trkpt lat="47.39096" lon="0.94901">
        <ele>106.36</ele>
        <time>2019-04-09T08:04:35Z</time>
      </trkpt>
      <trkpt lat="47.3909" lon="0.94896">
        <ele>106.36</ele>
        <time>2019-04-09T08:04:43Z</time>
      </trkpt>
      <trkpt lat="47.39075" lon="0.94883">
        <ele>106.36</ele>
        <time>2019-04-09T08:04:58Z</time>
      </trkpt>
      <trkpt lat="47.39057" lon="0.9487">
        <ele>106.84</ele>
        <time>2019-04-09T08:05:13Z</time>
      </trkpt>
      <trkpt lat="47.39033" lon="0.94857">
        <ele>106.84</ele>
        <time>2019-04-09T08:05:30Z</time>
      </trkpt>
      <trkpt lat="47.39015" lon="0.94845">
        <ele>106.84</ele>
        <time>2019-04-09T08:05:46Z</time>
      </trkpt>
      <trkpt lat="47.38998" lon="0.94833">
        <ele>107.32</ele>
        <time>2019-04-09T08:06:01Z</time>
      </trkpt>
      <trkpt lat="47.38989" lon="0.94826">
        <ele>107.32</ele>
        <time>2019-04-09T08:06:09Z</time>
      </trkpt>
      <trkpt lat="47.3897" lon="0.94816">
        <ele>107.81</ele>
        <time>2019-04-09T08:06:25Z</time>
      </trkpt>
      <trkpt lat="47.38952" lon="0.94805">
        <ele>108.29</ele>
        <time>2019-04-09T08:06:42Z</time>
      </trkpt>
      <trkpt lat="47.38947" lon="0.94801">
        <ele>108.77</ele>
        <time>2019-04-09T08:06:47Z</time>
      </trkpt>
      <trkpt lat="47.3893" lon="0.94788">
        <ele>109.25</ele>
        <time>2019-04-09T08:07:03Z</time>
      </trkpt>
      <trkpt lat="47.38918" lon="0.94782">
        <ele>109.73</ele>
        <time>2019-04-09T08:07:17Z</time>
      </trkpt>
      <trkpt lat="47.38913" lon="0.9478">
        <ele>109.73</ele>
        <time>2019-04-09T08:07:38Z</time>
      </trkpt>
      <trkpt lat="47.38911" lon="0.94776">
        <ele>109.73</ele>
        <time>2019-04-09T08:07:50Z</time>
      </trkpt>
      <trkpt lat="47.38908" lon="0.94776">
        <ele>110.21</ele>
        <time>2019-04-09T08:08:04Z</time>
      </trkpt>
      <trkpt lat="47.38902" lon="0.94774">
        <ele>110.21</ele>
        <time>2019-04-09T08:08:20Z</time>
      </trkpt>
      <trkpt lat="47.38888" lon="0.94762">
        <ele>110.69</ele>
        <time>2019-04-09T08:08:36Z</time>
      </trkpt>
      <trkpt lat="47.38872" lon="0.94751">
        <ele>110.69</ele>
        <time>2019-04-09T08:08:51Z</time>
      </trkpt>
      <trkpt lat="47.38853" lon="0.94742">
        <ele>110.69</ele>
        <time>2019-04-09T08:09:08Z</time>
      </trkpt>
      <trkpt lat="47.38845" lon="0.94735">
        <ele>111.17</ele>
        <time>2019-04-09T08:09:16Z</time>
      </trkpt>
      <trkpt lat="47.38838" lon="0.94732">
        <ele>111.17</ele>
        <time>2019-04-09T08:09:21Z</time>
      </trkpt>
      <trkpt lat="47.38817" lon="0.9472">
        <ele>111.17</ele>
        <time>2019-04-09T08:09:39Z</time>
      </trkpt>
      <trkpt lat="47.38801" lon="0.94711">
        <ele>111.65</ele>
        <time>2019-04-09T08:09:54Z</time>
      </trkpt>
      <trkpt lat="47.38789" lon="0.94705">
        <ele>111.65</ele>
        <time>2019-04-09T08:10:03Z</time>
      </trkpt>
      <trkpt lat="47.38771" lon="0.94698">
        <ele>112.13</ele>
        <time>2019-04-09T08:10:19Z</time>
      </trkpt>
      <trkpt lat="47.38753" lon="0.94689">
        <ele>112.13</ele>
        <time>2019-04-09T08:10:35Z</time>
      </trkpt>
      <trkpt lat="47.38737" lon="0.9468">
        <ele>112.13</ele>
        <time>2019-04-09T08:10:50Z</time>
      </trkpt>
      <trkpt lat="47.3872" lon="0.94672">
        <ele>112.13</ele>
        <time>2019-04-09T08:11:05Z</time>
      </trkpt>
      <trkpt lat="47.38702" lon="0.94663">
        <ele>112.61</ele>
        <time>2019-04-09T08:11:21Z</time>
      </trkpt>
      <trkpt lat="47.38694" lon="0.94658">
        <ele>112.61</ele>
        <time>2019-04-09T08:11:28Z</time>
      </trkpt>
      <trkpt lat="47.38677" lon="0.94649">
        <ele>112.61</ele>
        <time>2019-04-09T08:11:44Z</time>
      </trkpt>
      <trkpt lat="47.38662" lon="0.94643">
        <ele>112.13</ele>
        <time>2019-04-09T08:11:58Z</time>
      </trkpt>
      <trkpt lat="47.38648" lon="0.94634">
        <ele>112.13</ele>
        <time>2019-04-09T08:12:13Z</time>
      </trkpt>
      <trkpt lat="47.38611" lon="0.94626">
        <ele>112.13</ele>
        <time>2019-04-09T08:12:38Z</time>
      </trkpt>
      <trkpt lat="47.386" lon="0.94625">
        <ele>111.65</ele>
        <time>2019-04-09T08:12:59Z</time>
      </trkpt>
      <trkpt lat="47.38586" lon="0.9461">
        <ele>111.65</ele>
        <time>2019-04-09T08:13:19Z</time>
      </trkpt>
      <trkpt lat="47.3857" lon="0.94609">
        <ele>111.65</ele>
        <time>2019-04-09T08:13:31Z</time>
      </trkpt>
      <trkpt lat="47.38556" lon="0.946">
        <ele>111.65</ele>
        <time>2019-04-09T08:13:45Z</time>
      </trkpt>
      <trkpt lat="47.38539" lon="0.94585">
        <ele>111.65</ele>
        <time>2019-04-09T08:14:02Z</time>
      </trkpt>
      <trkpt lat="47.38529" lon="0.94578">
        <ele>111.65</ele>
        <time>2019-04-09T08:14:11Z</time>
      </trkpt>
      <trkpt lat="47.38522" lon="0.94571">
        <ele>111.65</ele>
        <time>2019-04-09T08:14:25Z</time>
      </trkpt>
      <trkpt lat="47.38525" lon="0.94575">
        <ele>111.65</ele>
        <time>2019-04-09T08:14:41Z</time>
      </trkpt>
      <trkpt lat="47.3852" lon="0.94565">
        <ele>111.65</ele>
        <time>2019-04-09T08:15:06Z</time>
      </trkpt>
      <trkpt lat="47.38522" lon="0.94568">
        <ele>111.65</ele>
        <time>2019-04-09T08:15:31Z</time>
      </trkpt>
      <trkpt lat="47.38517" lon="0.94556">
        <ele>112.13</ele>
        <time>2019-04-09T08:16:00Z</time>
      </trkpt>
      <trkpt lat="47.38517" lon="0.94558">
        <ele>112.13</ele>
        <time>2019-04-09T08:16:22Z</time>
      </trkpt>
      <trkpt lat="47.38513" lon="0.94572">
        <ele>112.13</ele>
        <time>2019-04-09T08:16:45Z</time>
      </trkpt>
      <trkpt lat="47.3852" lon="0.94565">
        <ele>112.61</ele>
        <time>2019-04-09T08:17:17Z</time>
      </trkpt>
      <trkpt lat="47.38522" lon="0.94567">
        <ele>112.61</ele>
        <time>2019-04-09T08:17:34Z</time>
      </trkpt>
      <trkpt lat="47.3852" lon="0.94564">
        <ele>112.61</ele>
        <time>2019-04-09T08:17:56Z</time>
      </trkpt>
      <trkpt lat="47.38515" lon="0.94567">
        <ele>113.09</ele>
        <time>2019-04-09T08:18:15Z</time>
      </trkpt>
      <trkpt lat="47.3851" lon="0.9457">
        <ele>113.09</ele>
        <time>2019-04-09T08:18:30Z</time>
      </trkpt>
      <trkpt lat="47.38501" lon="0.94564">
        <ele>113.09</ele>
        <time>2019-04-09T08:18:50Z</time>
      </trkpt>
      <trkpt lat="47.3849" lon="0.94561">
        <ele>113.09</ele>
        <time>2019-04-09T08:19:01Z</time>
      </trkpt>
      <trkpt lat="47.38475" lon="0.94552">
        <ele>113.09</ele>
        <time>2019-04-09T08:19:16Z</time>
      </trkpt>
      <trkpt lat="47.38462" lon="0.94542">
        <ele>112.61</ele>
        <time>2019-04-09T08:19:30Z</time>
      </trkpt>
      <trkpt lat="47.38448" lon="0.94532">
        <ele>112.61</ele>
        <time>2019-04-09T08:19:45Z</time>
      </trkpt>
      <trkpt lat="47.38434" lon="0.94526">
        <ele>112.61</ele>
        <time>2019-04-09T08:19:56Z</time>
      </trkpt>
      <trkpt lat="47.38414" lon="0.94517">
        <ele>112.61</ele>
        <time>2019-04-09T08:20:08Z</time>
      </trkpt>
      <trkpt lat="47.38397" lon="0.94507">
        <ele>112.61</ele>
        <time>2019-04-09T08:20:24Z</time>
      </trkpt>
      <trkpt lat="47.38392" lon="0.94504">
        <ele>112.61</ele>
        <time>2019-04-09T08:20:28Z</time>
      </trkpt>
      <trkpt lat="47.38385" lon="0.945">
        <ele>112.13</ele>
        <time>2019-04-09T08:20:35Z</time>
      </trkpt>
      <trkpt lat="47.38368" lon="0.94493">
        <ele>112.13</ele>
        <time>2019-04-09T08:20:49Z</time>
      </trkpt>
      <trkpt lat="47.38349" lon="0.94488">
        <ele>111.65</ele>
        <time>2019-04-09T08:21:03Z</time>
      </trkpt>
      <trkpt lat="47.38337" lon="0.94482">
        <ele>111.65</ele>
        <time>2019-04-09T08:21:15Z</time>
      </trkpt>
      <trkpt lat="47.38316" lon="0.94472">
        <ele>111.65</ele>
        <time>2019-04-09T08:21:32Z</time>
      </trkpt>
      <trkpt lat="47.38303" lon="0.94463">
        <ele>111.65</ele>
        <time>2019-04-09T08:21:44Z</time>
      </trkpt>
      <trkpt lat="47.38283" lon="0.94455">
        <ele>111.17</ele>
        <time>2019-04-09T08:21:59Z</time>
      </trkpt>
      <trkpt lat="47.38267" lon="0.94447">
        <ele>110.69</ele>
        <time>2019-04-09T08:22:13Z</time>
      </trkpt>
      <trkpt lat="47.38252" lon="0.94434">
        <ele>110.69</ele>
        <time>2019-04-09T08:22:29Z</time>
      </trkpt>
      <trkpt lat="47.38251" lon="0.94434">
        <ele>110.69</ele>
        <time>2019-04-09T08:22:30Z</time>
      </trkpt>
      <trkpt lat="47.38237" lon="0.94425">
        <ele>110.21</ele>
        <time>2019-04-09T08:22:42Z</time>
      </trkpt>
      <trkpt lat="47.38222" lon="0.94414">
        <ele>109.73</ele>
        <time>2019-04-09T08:22:56Z</time>
      </trkpt>
      <trkpt lat="47.38204" lon="0.94407">
        <ele>109.25</ele>
        <time>2019-04-09T08:23:09Z</time>
      </trkpt>
      <trkpt lat="47.38197" lon="0.94404">
        <ele>109.25</ele>
        <time>2019-04-09T08:23:15Z</time>
      </trkpt>
      <trkpt lat="47.38181" lon="0.94393">
        <ele>108.77</ele>
        <time>2019-04-09T08:23:31Z</time>
      </trkpt>
      <trkpt lat="47.38167" lon="0.9439">
        <ele>108.29</ele>
        <time>2019-04-09T08:23:43Z</time>
      </trkpt>
      <trkpt lat="47.38149" lon="0.94379">
        <ele>107.81</ele>
        <time>2019-04-09T08:23:59Z</time>
      </trkpt>
      <trkpt lat="47.38131" lon="0.9437">
        <ele>107.81</ele>
        <time>2019-04-09T08:24:14Z</time>
      </trkpt>
      <trkpt lat="47.38123" lon="0.94366">
        <ele>107.81</ele>
        <time>2019-04-09T08:24:21Z</time>
      </trkpt>
      <trkpt lat="47.3811" lon="0.94359">
        <ele>107.81</ele>
        <time>2019-04-09T08:24:32Z</time>
      </trkpt>
      <trkpt lat="47.38099" lon="0.94358">
        <ele>107.81</ele>
        <time>2019-04-09T08:24:39Z</time>
      </trkpt>
      <trkpt lat="47.38079" lon="0.94347">
        <ele>107.81</ele>
        <time>2019-04-09T08:24:55Z</time>
      </trkpt>
      <trkpt lat="47.38065" lon="0.9434">
        <ele>107.81</ele>
        <time>2019-04-09T08:25:07Z</time>
      </trkpt>
      <trkpt lat="47.3806" lon="0.94336">
        <ele>107.81</ele>
        <time>2019-04-09T08:25:11Z</time>
      </trkpt>
      <trkpt lat="47.38043" lon="0.94325">
        <ele>107.81</ele>
        <time>2019-04-09T08:25:26Z</time>
      </trkpt>
      <trkpt lat="47.38024" lon="0.94314">
        <ele>107.81</ele>
        <time>2019-04-09T08:25:41Z</time>
      </trkpt>
      <trkpt lat="47.38021" lon="0.94313">
        <ele>107.81</ele>
        <time>2019-04-09T08:25:43Z</time>
      </trkpt>
      <trkpt lat="47.38004" lon="0.943">
        <ele>107.81</ele>
        <time>2019-04-09T08:25:58Z</time>
      </trkpt>
      <trkpt lat="47.37993" lon="0.94286">
        <ele>107.81</ele>
        <time>2019-04-09T08:26:11Z</time>
      </trkpt>
      <trkpt lat="47.37992" lon="0.94282">
        <ele>107.81</ele>
        <time>2019-04-09T08:26:13Z</time>
      </trkpt>
      <trkpt lat="47.37984" lon="0.94267">
        <ele>107.81</ele>
        <time>2019-04-09T08:26:28Z</time>
      </trkpt>
      <trkpt lat="47.37973" lon="0.94241">
        <ele>107.32</ele>
        <time>2019-04-09T08:26:45Z</time>
      </trkpt>
      <trkpt lat="47.37967" lon="0.9423">
        <ele>106.84</ele>
        <time>2019-04-09T08:26:52Z</time>
      </trkpt>
      <trkpt lat="47.37956" lon="0.94202">
        <ele>106.36</ele>
        <time>2019-04-09T08:27:08Z</time>
      </trkpt>
      <trkpt lat="47.37947" lon="0.94184">
        <ele>106.84</ele>
        <time>2019-04-09T08:27:21Z</time>
      </trkpt>
      <trkpt lat="47.37937" lon="0.94158">
        <ele>106.36</ele>
        <time>2019-04-09T08:27:38Z</time>
      </trkpt>
      <trkpt lat="47.37933" lon="0.94147">
        <ele>106.36</ele>
        <time>2019-04-09T08:27:46Z</time>
      </trkpt>
      <trkpt lat="47.37925" lon="0.94122">
        <ele>106.36</ele>
        <time>2019-04-09T08:28:01Z</time>
      </trkpt>
      <trkpt lat="47.3792" lon="0.94103">
        <ele>106.36</ele>
        <time>2019-04-09T08:28:14Z</time>
      </trkpt>
      <trkpt lat="47.37921" lon="0.94095">
        <ele>106.36</ele>
        <time>2019-04-09T08:28:18Z</time>
      </trkpt>
      <trkpt lat="47.37924" lon="0.94088">
        <ele>106.84</ele>
        <time>2019-04-09T08:28:22Z</time>
      </trkpt>
      <trkpt lat="47.37923" lon="0.94061">
        <ele>106.36</ele>
        <time>2019-04-09T08:28:37Z</time>
      </trkpt>
      <trkpt lat="47.37923" lon="0.94054">
        <ele>106.36</ele>
        <time>2019-04-09T08:28:41Z</time>
      </trkpt>
      <trkpt lat="47.37922" lon="0.94029">
        <ele>106.84</ele>
        <time>2019-04-09T08:28:55Z</time>
      </trkpt>
      <trkpt lat="47.37921" lon="0.94007">
        <ele>106.84</ele>
        <time>2019-04-09T08:29:08Z</time>
      </trkpt>
      <trkpt lat="47.37921" lon="0.93993">
        <ele>107.32</ele>
        <time>2019-04-09T08:29:16Z</time>
      </trkpt>
      <trkpt lat="47.37921" lon="0.93987">
        <ele>107.32</ele>
        <time>2019-04-09T08:29:19Z</time>
      </trkpt>
      <trkpt lat="47.3792" lon="0.93958">
        <ele>107.32</ele>
        <time>2019-04-09T08:29:35Z</time>
      </trkpt>
      <trkpt lat="47.37922" lon="0.93929">
        <ele>107.32</ele>
        <time>2019-04-09T08:29:48Z</time>
      </trkpt>
      <trkpt lat="47.37921" lon="0.93925">
        <ele>107.32</ele>
        <time>2019-04-09T08:30:08Z</time>
      </trkpt>
      <trkpt lat="47.37921" lon="0.9391">
        <ele>107.32</ele>
        <time>2019-04-09T08:30:31Z</time>
      </trkpt>
      <trkpt lat="47.3792" lon="0.93901">
        <ele>107.32</ele>
        <time>2019-04-09T08:30:38Z</time>
      </trkpt>
      <trkpt lat="47.37917" lon="0.93872">
        <ele>107.32</ele>
        <time>2019-04-09T08:30:56Z</time>
      </trkpt>
      <trkpt lat="47.37918" lon="0.93855">
        <ele>107.32</ele>
        <time>2019-04-09T08:31:06Z</time>
      </trkpt>
      <trkpt lat="47.37917" lon="0.93844">
        <ele>107.81</ele>
        <time>2019-04-09T08:31:11Z</time>
      </trkpt>
      <trkpt lat="47.37913" lon="0.93828">
        <ele>107.81</ele>
        <time>2019-04-09T08:31:27Z</time>
      </trkpt>
      <trkpt lat="47.37919" lon="0.93818">
        <ele>107.81</ele>
        <time>2019-04-09T08:31:39Z</time>
      </trkpt>
      <trkpt lat="47.37915" lon="0.9379">
        <ele>107.81</ele>
        <time>2019-04-09T08:31:55Z</time>
      </trkpt>
      <trkpt lat="47.37915" lon="0.93762">
        <ele>107.81</ele>
        <time>2019-04-09T08:32:08Z</time>
      </trkpt>
      <trkpt lat="47.37918" lon="0.93741">
        <ele>108.29</ele>
        <time>2019-04-09T08:32:23Z</time>
      </trkpt>
      <trkpt lat="47.37916" lon="0.93723">
        <ele>107.81</ele>
        <time>2019-04-09T08:32:37Z</time>
      </trkpt>
      <trkpt lat="47.37919" lon="0.93704">
        <ele>107.81</ele>
        <time>2019-04-09T08:32:58Z</time>
      </trkpt>
      <trkpt lat="47.37916" lon="0.93676">
        <ele>107.81</ele>
        <time>2019-04-09T08:33:14Z</time>
      </trkpt>
      <trkpt lat="47.37916" lon="0.93665">
        <ele>107.81</ele>
        <time>2019-04-09T08:33:19Z</time>
      </trkpt>
      <trkpt lat="47.3791" lon="0.93637">
        <ele>107.81</ele>
        <time>2019-04-09T08:33:33Z</time>
      </trkpt>
      <trkpt lat="47.3791" lon="0.9363">
        <ele>107.81</ele>
        <time>2019-04-09T08:33:37Z</time>
      </trkpt>
      <trkpt lat="47.37909" lon="0.93628">
        <ele>107.81</ele>
        <time>2019-04-09T08:33:38Z</time>
      </trkpt>
      <trkpt lat="47.37908" lon="0.93595">
        <ele>107.81</ele>
        <time>2019-04-09T08:33:54Z</time>
      </trkpt>
      <trkpt lat="47.3791" lon="0.93577">
        <ele>107.81</ele>
        <time>2019-04-09T08:34:06Z</time>
      </trkpt>
      <trkpt lat="47.3791" lon="0.93573">
        <ele>107.81</ele>
        <time>2019-04-09T08:34:08Z</time>
      </trkpt>
      <trkpt lat="47.37909" lon="0.9357">
        <ele>107.81</ele>
        <time>2019-04-09T08:34:09Z</time>
      </trkpt>
      <trkpt lat="47.37909" lon="0.93568">
        <ele>107.81</ele>
        <time>2019-04-09T08:34:10Z</time>
      </trkpt>
      <trkpt lat="47.37911" lon="0.93536">
        <ele>107.81</ele>
        <time>2019-04-09T08:34:25Z</time>
      </trkpt>
      <trkpt lat="47.37914" lon="0.93497">
        <ele>107.32</ele>
        <time>2019-04-09T08:34:42Z</time>
      </trkpt>
      <trkpt lat="47.37914" lon="0.93489">
        <ele>107.32</ele>
        <time>2019-04-09T08:34:46Z</time>
      </trkpt>
      <trkpt lat="47.37912" lon="0.93458">
        <ele>107.32</ele>
        <time>2019-04-09T08:35:00Z</time>
      </trkpt>
      <trkpt lat="47.3791" lon="0.93424">
        <ele>107.32</ele>
        <time>2019-04-09T08:35:15Z</time>
      </trkpt>
      <trkpt lat="47.3791" lon="0.93401">
        <ele>107.81</ele>
        <time>2019-04-09T08:35:27Z</time>
      </trkpt>
      <trkpt lat="47.37912" lon="0.93394">
        <ele>108.29</ele>
        <time>2019-04-09T08:35:31Z</time>
      </trkpt>
      <trkpt lat="47.37911" lon="0.93392">
        <ele>108.29</ele>
        <time>2019-04-09T08:35:32Z</time>
      </trkpt>
      <trkpt lat="47.37911" lon="0.9339">
        <ele>108.29</ele>
        <time>2019-04-09T08:35:33Z</time>
      </trkpt>
      <trkpt lat="47.3791" lon="0.93388">
        <ele>108.29</ele>
        <time>2019-04-09T08:35:34Z</time>
      </trkpt>
      <trkpt lat="47.3791" lon="0.93386">
        <ele>108.29</ele>
        <time>2019-04-09T08:35:35Z</time>
      </trkpt>
      <trkpt lat="47.3791" lon="0.93361">
        <ele>107.81</ele>
        <time>2019-04-09T08:35:46Z</time>
      </trkpt>
      <trkpt lat="47.37909" lon="0.93359">
        <ele>107.81</ele>
        <time>2019-04-09T08:35:47Z</time>
      </trkpt>
      <trkpt lat="47.3791" lon="0.93357">
        <ele>107.81</ele>
        <time>2019-04-09T08:35:48Z</time>
      </trkpt>
      <trkpt lat="47.3791" lon="0.93355">
        <ele>107.81</ele>
        <time>2019-04-09T08:35:49Z</time>
      </trkpt>
      <trkpt lat="47.3791" lon="0.93353">
        <ele>107.81</ele>
        <time>2019-04-09T08:35:50Z</time>
      </trkpt>
      <trkpt lat="47.3791" lon="0.93351">
        <ele>107.81</ele>
        <time>2019-04-09T08:35:51Z</time>
      </trkpt>
      <trkpt lat="47.3791" lon="0.93349">
        <ele>107.81</ele>
        <time>2019-04-09T08:35:52Z</time>
      </trkpt>
      <trkpt lat="47.3791" lon="0.93347">
        <ele>108.29</ele>
        <time>2019-04-09T08:35:53Z</time>
      </trkpt>
      <trkpt lat="47.37908" lon="0.93331">
        <ele>108.77</ele>
        <time>2019-04-09T08:36:01Z</time>
      </trkpt>
      <trkpt lat="47.37907" lon="0.93297">
        <ele>108.29</ele>
        <time>2019-04-09T08:36:20Z</time>
      </trkpt>
      <trkpt lat="47.37907" lon="0.93283">
        <ele>108.29</ele>
        <time>2019-04-09T08:36:33Z</time>
      </trkpt>
      <trkpt lat="47.37905" lon="0.93264">
        <ele>108.77</ele>
        <time>2019-04-09T08:36:43Z</time>
      </trkpt>
      <trkpt lat="47.37905" lon="0.93262">
        <ele>108.77</ele>
        <time>2019-04-09T08:36:44Z</time>
      </trkpt>
      <trkpt lat="47.37904" lon="0.9326">
        <ele>108.77</ele>
        <time>2019-04-09T08:36:45Z</time>
      </trkpt>
      <trkpt lat="47.37904" lon="0.93258">
        <ele>108.77</ele>
        <time>2019-04-09T08:36:46Z</time>
      </trkpt>
      <trkpt lat="47.37906" lon="0.93236">
        <ele>109.25</ele>
        <time>2019-04-09T08:36:59Z</time>
      </trkpt>
      <trkpt lat="47.37908" lon="0.93223">
        <ele>109.25</ele>
        <time>2019-04-09T08:37:06Z</time>
      </trkpt>
      <trkpt lat="47.37908" lon="0.93221">
        <ele>109.25</ele>
        <time>2019-04-09T08:37:07Z</time>
      </trkpt>
      <trkpt lat="47.37908" lon="0.93218">
        <ele>109.25</ele>
        <time>2019-04-09T08:37:08Z</time>
      </trkpt>
      <trkpt lat="47.37907" lon="0.93216">
        <ele>109.25</ele>
        <time>2019-04-09T08:37:09Z</time>
      </trkpt>
      <trkpt lat="47.37907" lon="0.93214">
        <ele>109.25</ele>
        <time>2019-04-09T08:37:10Z</time>
      </trkpt>
      <trkpt lat="47.37905" lon="0.93193">
        <ele>109.73</ele>
        <time>2019-04-09T08:37:24Z</time>
      </trkpt>
      <trkpt lat="47.37903" lon="0.93169">
        <ele>109.73</ele>
        <time>2019-04-09T08:37:38Z</time>
      </trkpt>
      <trkpt lat="47.37903" lon="0.93162">
        <ele>109.73</ele>
        <time>2019-04-09T08:37:42Z</time>
      </trkpt>
      <trkpt lat="47.37903" lon="0.93132">
        <ele>109.73</ele>
        <time>2019-04-09T08:37:58Z</time>
      </trkpt>
      <trkpt lat="47.37903" lon="0.93106">
        <ele>109.73</ele>
        <time>2019-04-09T08:38:13Z</time>
      </trkpt>
      <trkpt lat="47.37902" lon="0.9308">
        <ele>109.73</ele>
        <time>2019-04-09T08:38:28Z</time>
      </trkpt>
      <trkpt lat="47.379" lon="0.93053">
        <ele>109.73</ele>
        <time>2019-04-09T08:38:42Z</time>
      </trkpt>
      <trkpt lat="47.379" lon="0.93021">
        <ele>109.73</ele>
        <time>2019-04-09T08:38:59Z</time>
      </trkpt>
      <trkpt lat="47.379" lon="0.93019">
        <ele>109.73</ele>
        <time>2019-04-09T08:39:00Z</time>
      </trkpt>
      <trkpt lat="47.37896" lon="0.92987">
        <ele>109.73</ele>
        <time>2019-04-09T08:39:17Z</time>
      </trkpt>
      <trkpt lat="47.37895" lon="0.92961">
        <ele>109.25</ele>
        <time>2019-04-09T08:39:31Z</time>
      </trkpt>
      <trkpt lat="47.37897" lon="0.92931">
        <ele>109.73</ele>
        <time>2019-04-09T08:39:48Z</time>
      </trkpt>
      <trkpt lat="47.37898" lon="0.92907">
        <ele>109.25</ele>
        <time>2019-04-09T08:40:05Z</time>
      </trkpt>
      <trkpt lat="47.37897" lon="0.92878">
        <ele>109.73</ele>
        <time>2019-04-09T08:40:22Z</time>
      </trkpt>
      <trkpt lat="47.37894" lon="0.92848">
        <ele>109.25</ele>
        <time>2019-04-09T08:40:37Z</time>
      </trkpt>
      <trkpt lat="47.37891" lon="0.92817">
        <ele>108.77</ele>
        <time>2019-04-09T08:40:54Z</time>
      </trkpt>
      <trkpt lat="47.37891" lon="0.92815">
        <ele>109.25</ele>
        <time>2019-04-09T08:40:55Z</time>
      </trkpt>
      <trkpt lat="47.37895" lon="0.92784">
        <ele>109.25</ele>
        <time>2019-04-09T08:41:11Z</time>
      </trkpt>
      <trkpt lat="47.37893" lon="0.92755">
        <ele>108.29</ele>
        <time>2019-04-09T08:41:27Z</time>
      </trkpt>
      <trkpt lat="47.37895" lon="0.92731">
        <ele>108.77</ele>
        <time>2019-04-09T08:41:42Z</time>
      </trkpt>
      <trkpt lat="47.37895" lon="0.92727">
        <ele>108.29</ele>
        <time>2019-04-09T08:41:44Z</time>
      </trkpt>
      <trkpt lat="47.37895" lon="0.9271">
        <ele>108.77</ele>
        <time>2019-04-09T08:41:53Z</time>
      </trkpt>
      <trkpt lat="47.37896" lon="0.92701">
        <ele>108.29</ele>
        <time>2019-04-09T08:41:58Z</time>
      </trkpt>
      <trkpt lat="47.37896" lon="0.927">
        <ele>108.77</ele>
        <time>2019-04-09T08:41:59Z</time>
      </trkpt>
      <trkpt lat="47.37897" lon="0.92698">
        <ele>108.29</ele>
        <time>2019-04-09T08:42:00Z</time>
      </trkpt>
      <trkpt lat="47.37898" lon="0.92682">
        <ele>108.77</ele>
        <time>2019-04-09T08:42:11Z</time>
      </trkpt>
      <trkpt lat="47.37898" lon="0.92654">
        <ele>108.29</ele>
        <time>2019-04-09T08:42:28Z</time>
      </trkpt>
      <trkpt lat="47.37898" lon="0.92648">
        <ele>108.29</ele>
        <time>2019-04-09T08:42:31Z</time>
      </trkpt>
      <trkpt lat="47.37899" lon="0.92631">
        <ele>108.29</ele>
        <time>2019-04-09T08:42:44Z</time>
      </trkpt>
      <trkpt lat="47.37896" lon="0.92603">
        <ele>108.29</ele>
        <time>2019-04-09T08:43:01Z</time>
      </trkpt>
      <trkpt lat="47.37895" lon="0.92567">
        <ele>108.29</ele>
        <time>2019-04-09T08:43:20Z</time>
      </trkpt>
      <trkpt lat="47.37894" lon="0.92564">
        <ele>108.77</ele>
        <time>2019-04-09T08:43:22Z</time>
      </trkpt>
      <trkpt lat="47.37893" lon="0.92532">
        <ele>108.29</ele>
        <time>2019-04-09T08:43:39Z</time>
      </trkpt>
      <trkpt lat="47.37893" lon="0.92531">
        <ele>109.25</ele>
        <time>2019-04-09T08:43:40Z</time>
      </trkpt>
      <trkpt lat="47.37893" lon="0.92506">
        <ele>108.77</ele>
        <time>2019-04-09T08:43:55Z</time>
      </trkpt>
      <trkpt lat="47.37889" lon="0.9249">
        <ele>108.29</ele>
        <time>2019-04-09T08:44:09Z</time>
      </trkpt>
      <trkpt lat="47.37893" lon="0.92463">
        <ele>108.77</ele>
        <time>2019-04-09T08:44:24Z</time>
      </trkpt>
      <trkpt lat="47.37894" lon="0.92436">
        <ele>108.29</ele>
        <time>2019-04-09T08:44:39Z</time>
      </trkpt>
      <trkpt lat="47.37894" lon="0.92406">
        <ele>107.81</ele>
        <time>2019-04-09T08:44:55Z</time>
      </trkpt>
      <trkpt lat="47.37893" lon="0.92378">
        <ele>107.32</ele>
        <time>2019-04-09T08:45:10Z</time>
      </trkpt>
      <trkpt lat="47.37891" lon="0.9236">
        <ele>107.32</ele>
        <time>2019-04-09T08:45:20Z</time>
      </trkpt>
      <trkpt lat="47.37891" lon="0.92358">
        <ele>107.81</ele>
        <time>2019-04-09T08:45:21Z</time>
      </trkpt>
      <trkpt lat="47.37892" lon="0.92334">
        <ele>107.81</ele>
        <time>2019-04-09T08:45:35Z</time>
      </trkpt>
      <trkpt lat="47.37889" lon="0.92311">
        <ele>106.84</ele>
        <time>2019-04-09T08:45:46Z</time>
      </trkpt>
      <trkpt lat="47.37886" lon="0.92288">
        <ele>106.84</ele>
        <time>2019-04-09T08:46:00Z</time>
      </trkpt>
      <trkpt lat="47.37887" lon="0.92266">
        <ele>105.88</ele>
        <time>2019-04-09T08:46:10Z</time>
      </trkpt>
      <trkpt lat="47.37887" lon="0.92263">
        <ele>105.88</ele>
        <time>2019-04-09T08:46:11Z</time>
      </trkpt>
      <trkpt lat="47.37886" lon="0.9226">
        <ele>105.88</ele>
        <time>2019-04-09T08:46:12Z</time>
      </trkpt>
      <trkpt lat="47.37886" lon="0.92234">
        <ele>105.88</ele>
        <time>2019-04-09T08:46:27Z</time>
      </trkpt>
      <trkpt lat="47.37886" lon="0.92211">
        <ele>105.88</ele>
        <time>2019-04-09T08:46:40Z</time>
      </trkpt>
      <trkpt lat="47.37887" lon="0.92202">
        <ele>105.88</ele>
        <time>2019-04-09T08:46:53Z</time>
      </trkpt>
      <trkpt lat="47.37888" lon="0.92179">
        <ele>105.88</ele>
        <time>2019-04-09T08:47:07Z</time>
      </trkpt>
      <trkpt lat="47.37888" lon="0.92167">
        <ele>105.4</ele>
        <time>2019-04-09T08:47:13Z</time>
      </trkpt>
      <trkpt lat="47.37888" lon="0.92146">
        <ele>105.88</ele>
        <time>2019-04-09T08:47:26Z</time>
      </trkpt>
      <trkpt lat="47.37887" lon="0.92137">
        <ele>105.88</ele>
        <time>2019-04-09T08:47:31Z</time>
      </trkpt>
      <trkpt lat="47.37885" lon="0.9211">
        <ele>105.88</ele>
        <time>2019-04-09T08:47:47Z</time>
      </trkpt>
      <trkpt lat="47.37882" lon="0.92088">
        <ele>105.88</ele>
        <time>2019-04-09T08:47:59Z</time>
      </trkpt>
      <trkpt lat="47.37881" lon="0.92078">
        <ele>106.36</ele>
        <time>2019-04-09T08:48:04Z</time>
      </trkpt>
      <trkpt lat="47.37878" lon="0.92059">
        <ele>105.88</ele>
        <time>2019-04-09T08:48:14Z</time>
      </trkpt>
      <trkpt lat="47.37879" lon="0.92056">
        <ele>106.36</ele>
        <time>2019-04-09T08:48:15Z</time>
      </trkpt>
      <trkpt lat="47.37879" lon="0.92054">
        <ele>105.88</ele>
        <time>2019-04-09T08:48:16Z</time>
      </trkpt>
      <trkpt lat="47.37878" lon="0.92052">
        <ele>105.88</ele>
        <time>2019-04-09T08:48:17Z</time>
      </trkpt>
      <trkpt lat="47.37878" lon="0.9205">
        <ele>105.88</ele>
        <time>2019-04-09T08:48:18Z</time>
      </trkpt>
      <trkpt lat="47.37879" lon="0.92025">
        <ele>105.88</ele>
        <time>2019-04-09T08:48:32Z</time>
      </trkpt>
      <trkpt lat="47.37879" lon="0.91994">
        <ele>105.88</ele>
        <time>2019-04-09T08:48:48Z</time>
      </trkpt>
      <trkpt lat="47.37879" lon="0.91972">
        <ele>105.4</ele>
        <time>2019-04-09T08:48:59Z</time>
      </trkpt>
      <trkpt lat="47.37878" lon="0.91953">
        <ele>105.4</ele>
        <time>2019-04-09T08:49:14Z</time>
      </trkpt>
      <trkpt lat="47.37879" lon="0.9195">
        <ele>104.92</ele>
        <time>2019-04-09T08:49:16Z</time>
      </trkpt>
      <trkpt lat="47.37879" lon="0.91948">
        <ele>104.92</ele>
        <time>2019-04-09T08:49:17Z</time>
      </trkpt>
      <trkpt lat="47.37879" lon="0.91942">
        <ele>104.92</ele>
        <time>2019-04-09T08:49:20Z</time>
      </trkpt>
      <trkpt lat="47.37881" lon="0.9191">
        <ele>104.44</ele>
        <time>2019-04-09T08:49:35Z</time>
      </trkpt>
      <trkpt lat="47.3788" lon="0.91878">
        <ele>104.44</ele>
        <time>2019-04-09T08:49:49Z</time>
      </trkpt>
      <trkpt lat="47.37881" lon="0.91845">
        <ele>104.44</ele>
        <time>2019-04-09T08:50:05Z</time>
      </trkpt>
      <trkpt lat="47.37878" lon="0.91818">
        <ele>104.44</ele>
        <time>2019-04-09T08:50:19Z</time>
      </trkpt>
      <trkpt lat="47.37879" lon="0.91797">
        <ele>104.44</ele>
        <time>2019-04-09T08:50:31Z</time>
      </trkpt>
      <trkpt lat="47.37878" lon="0.91772">
        <ele>104.44</ele>
        <time>2019-04-09T08:50:44Z</time>
      </trkpt>
      <trkpt lat="47.37877" lon="0.9177">
        <ele>104.44</ele>
        <time>2019-04-09T08:50:45Z</time>
      </trkpt>
      <trkpt lat="47.37876" lon="0.91768">
        <ele>104.44</ele>
        <time>2019-04-09T08:50:46Z</time>
      </trkpt>
      <trkpt lat="47.37876" lon="0.91765">
        <ele>104.44</ele>
        <time>2019-04-09T08:50:47Z</time>
      </trkpt>
      <trkpt lat="47.37876" lon="0.91763">
        <ele>104.44</ele>
        <time>2019-04-09T08:50:48Z</time>
      </trkpt>
      <trkpt lat="47.37875" lon="0.91762">
        <ele>104.44</ele>
        <time>2019-04-09T08:50:49Z</time>
      </trkpt>
      <trkpt lat="47.37876" lon="0.91752">
        <ele>103.96</ele>
        <time>2019-04-09T08:50:54Z</time>
      </trkpt>
      <trkpt lat="47.37876" lon="0.91749">
        <ele>103.96</ele>
        <time>2019-04-09T08:50:55Z</time>
      </trkpt>
      <trkpt lat="47.37876" lon="0.91747">
        <ele>104.44</ele>
        <time>2019-04-09T08:50:56Z</time>
      </trkpt>
      <trkpt lat="47.37876" lon="0.91739">
        <ele>103.96</ele>
        <time>2019-04-09T08:51:00Z</time>
      </trkpt>
      <trkpt lat="47.37875" lon="0.91737">
        <ele>103.96</ele>
        <time>2019-04-09T08:51:01Z</time>
      </trkpt>
      <trkpt lat="47.37875" lon="0.91735">
        <ele>104.44</ele>
        <time>2019-04-09T08:51:02Z</time>
      </trkpt>
      <trkpt lat="47.37875" lon="0.91733">
        <ele>103.96</ele>
        <time>2019-04-09T08:51:03Z</time>
      </trkpt>
      <trkpt lat="47.37874" lon="0.91731">
        <ele>104.44</ele>
        <time>2019-04-09T08:51:04Z</time>
      </trkpt>
      <trkpt lat="47.37871" lon="0.91702">
        <ele>103.96</ele>
        <time>2019-04-09T08:51:20Z</time>
      </trkpt>
      <trkpt lat="47.3787" lon="0.91692">
        <ele>103.96</ele>
        <time>2019-04-09T08:51:26Z</time>
      </trkpt>
      <trkpt lat="47.3787" lon="0.91679">
        <ele>103.96</ele>
        <time>2019-04-09T08:51:33Z</time>
      </trkpt>
      <trkpt lat="47.3787" lon="0.91672">
        <ele>103.96</ele>
        <time>2019-04-09T08:51:37Z</time>
      </trkpt>
      <trkpt lat="47.3787" lon="0.91646">
        <ele>103.48</ele>
        <time>2019-04-09T08:51:52Z</time>
      </trkpt>
      <trkpt lat="47.37869" lon="0.91628">
        <ele>103</ele>
        <time>2019-04-09T08:52:06Z</time>
      </trkpt>
      <trkpt lat="47.37869" lon="0.91619">
        <ele>103</ele>
        <time>2019-04-09T08:52:18Z</time>
      </trkpt>
      <trkpt lat="47.37873" lon="0.91614">
        <ele>103</ele>
        <time>2019-04-09T08:52:33Z</time>
      </trkpt>
      <trkpt lat="47.37869" lon="0.9162">
        <ele>103</ele>
        <time>2019-04-09T08:52:55Z</time>
      </trkpt>
      <trkpt lat="47.37869" lon="0.91621">
        <ele>103</ele>
        <time>2019-04-09T08:53:11Z</time>
      </trkpt>
      <trkpt lat="47.37871" lon="0.91617">
        <ele>103.48</ele>
        <time>2019-04-09T08:53:29Z</time>
      </trkpt>
      <trkpt lat="47.37867" lon="0.91616">
        <ele>103.48</ele>
        <time>2019-04-09T08:53:51Z</time>
      </trkpt>
      <trkpt lat="47.37873" lon="0.91616">
        <ele>103.48</ele>
        <time>2019-04-09T08:54:03Z</time>
      </trkpt>
      <trkpt lat="47.37875" lon="0.91615">
        <ele>103.48</ele>
        <time>2019-04-09T08:54:04Z</time>
      </trkpt>
      <trkpt lat="47.37884" lon="0.91616">
        <ele>103.48</ele>
        <time>2019-04-09T08:54:09Z</time>
      </trkpt>
      <trkpt lat="47.37903" lon="0.91626">
        <ele>103</ele>
        <time>2019-04-09T08:54:25Z</time>
      </trkpt>
      <trkpt lat="47.37913" lon="0.91633">
        <ele>103</ele>
        <time>2019-04-09T08:54:39Z</time>
      </trkpt>
      <trkpt lat="47.37928" lon="0.91645">
        <ele>102.52</ele>
        <time>2019-04-09T08:54:52Z</time>
      </trkpt>
      <trkpt lat="47.3795" lon="0.91655">
        <ele>102.52</ele>
        <time>2019-04-09T08:55:08Z</time>
      </trkpt>
      <trkpt lat="47.37971" lon="0.91667">
        <ele>102.04</ele>
        <time>2019-04-09T08:55:24Z</time>
      </trkpt>
      <trkpt lat="47.37976" lon="0.9167">
        <ele>102.04</ele>
        <time>2019-04-09T08:55:31Z</time>
      </trkpt>
      <trkpt lat="47.37978" lon="0.91671">
        <ele>101.56</ele>
        <time>2019-04-09T08:55:33Z</time>
      </trkpt>
      <trkpt lat="47.37997" lon="0.91683">
        <ele>101.08</ele>
        <time>2019-04-09T08:55:49Z</time>
      </trkpt>
      <trkpt lat="47.3802" lon="0.91692">
        <ele>100.6</ele>
        <time>2019-04-09T08:56:05Z</time>
      </trkpt>
      <trkpt lat="47.38048" lon="0.91709">
        <ele>99.15</ele>
        <time>2019-04-09T08:56:24Z</time>
      </trkpt>
      <trkpt lat="47.38075" lon="0.91721">
        <ele>98.67</ele>
        <time>2019-04-09T08:56:41Z</time>
      </trkpt>
      <trkpt lat="47.38094" lon="0.91735">
        <ele>98.67</ele>
        <time>2019-04-09T08:56:58Z</time>
      </trkpt>
      <trkpt lat="47.38109" lon="0.91744">
        <ele>98.19</ele>
        <time>2019-04-09T08:57:10Z</time>
      </trkpt>
      <trkpt lat="47.38109" lon="0.91745">
        <ele>98.19</ele>
        <time>2019-04-09T08:57:11Z</time>
      </trkpt>
      <trkpt lat="47.3811" lon="0.91746">
        <ele>98.67</ele>
        <time>2019-04-09T08:57:12Z</time>
      </trkpt>
      <trkpt lat="47.38121" lon="0.91754">
        <ele>98.19</ele>
        <time>2019-04-09T08:57:22Z</time>
      </trkpt>
      <trkpt lat="47.38122" lon="0.91754">
        <ele>98.19</ele>
        <time>2019-04-09T08:57:23Z</time>
      </trkpt>
      <trkpt lat="47.38124" lon="0.91755">
        <ele>98.19</ele>
        <time>2019-04-09T08:57:24Z</time>
      </trkpt>
      <trkpt lat="47.38125" lon="0.91755">
        <ele>98.19</ele>
        <time>2019-04-09T08:57:25Z</time>
      </trkpt>
      <trkpt lat="47.38126" lon="0.91756">
        <ele>98.19</ele>
        <time>2019-04-09T08:57:26Z</time>
      </trkpt>
      <trkpt lat="47.38127" lon="0.91756">
        <ele>98.19</ele>
        <time>2019-04-09T08:57:27Z</time>
      </trkpt>
      <trkpt lat="47.38129" lon="0.91757">
        <ele>98.19</ele>
        <time>2019-04-09T08:57:28Z</time>
      </trkpt>
      <trkpt lat="47.3813" lon="0.91758">
        <ele>98.19</ele>
        <time>2019-04-09T08:57:29Z</time>
      </trkpt>
      <trkpt lat="47.38131" lon="0.91759">
        <ele>98.19</ele>
        <time>2019-04-09T08:57:30Z</time>
      </trkpt>
      <trkpt lat="47.38147" lon="0.9177">
        <ele>98.67</ele>
        <time>2019-04-09T08:57:43Z</time>
      </trkpt>
      <trkpt lat="47.38163" lon="0.91778">
        <ele>98.67</ele>
        <time>2019-04-09T08:57:56Z</time>
      </trkpt>
      <trkpt lat="47.38177" lon="0.91784">
        <ele>99.15</ele>
        <time>2019-04-09T08:58:10Z</time>
      </trkpt>
      <trkpt lat="47.38181" lon="0.91791">
        <ele>99.15</ele>
        <time>2019-04-09T08:58:24Z</time>
      </trkpt>
      <trkpt lat="47.38182" lon="0.91795">
        <ele>99.15</ele>
        <time>2019-04-09T08:58:35Z</time>
      </trkpt>
      <trkpt lat="47.38181" lon="0.91799">
        <ele>99.15</ele>
        <time>2019-04-09T08:58:51Z</time>
      </trkpt>
      <trkpt lat="47.3818" lon="0.91812">
        <ele>99.63</ele>
        <time>2019-04-09T08:59:05Z</time>
      </trkpt>
      <trkpt lat="47.38183" lon="0.91816">
        <ele>99.63</ele>
        <time>2019-04-09T08:59:11Z</time>
      </trkpt>
      <trkpt lat="47.38192" lon="0.91829">
        <ele>99.63</ele>
        <time>2019-04-09T08:59:24Z</time>
      </trkpt>
      <trkpt lat="47.38206" lon="0.91844">
        <ele>99.15</ele>
        <time>2019-04-09T08:59:38Z</time>
      </trkpt>
      <trkpt lat="47.38213" lon="0.91852">
        <ele>99.15</ele>
        <time>2019-04-09T08:59:47Z</time>
      </trkpt>
      <trkpt lat="47.38227" lon="0.91867">
        <ele>99.15</ele>
        <time>2019-04-09T08:59:59Z</time>
      </trkpt>
      <trkpt lat="47.38228" lon="0.91868">
        <ele>99.15</ele>
        <time>2019-04-09T09:00:00Z</time>
      </trkpt>
      <trkpt lat="47.38243" lon="0.91883">
        <ele>99.15</ele>
        <time>2019-04-09T09:00:14Z</time>
      </trkpt>
      <trkpt lat="47.38245" lon="0.91884">
        <ele>99.15</ele>
        <time>2019-04-09T09:00:15Z</time>
      </trkpt>
      <trkpt lat="47.38246" lon="0.91886">
        <ele>98.67</ele>
        <time>2019-04-09T09:00:16Z</time>
      </trkpt>
      <trkpt lat="47.38265" lon="0.91908">
        <ele>99.15</ele>
        <time>2019-04-09T09:00:34Z</time>
      </trkpt>
      <trkpt lat="47.38277" lon="0.91924">
        <ele>99.63</ele>
        <time>2019-04-09T09:00:48Z</time>
      </trkpt>
      <trkpt lat="47.38292" lon="0.91946">
        <ele>99.63</ele>
        <time>2019-04-09T09:01:03Z</time>
      </trkpt>
      <trkpt lat="47.38306" lon="0.91962">
        <ele>99.63</ele>
        <time>2019-04-09T09:01:18Z</time>
      </trkpt>
      <trkpt lat="47.38317" lon="0.91978">
        <ele>99.63</ele>
        <time>2019-04-09T09:01:32Z</time>
      </trkpt>
      <trkpt lat="47.38323" lon="0.91985">
        <ele>99.15</ele>
        <time>2019-04-09T09:01:40Z</time>
      </trkpt>
      <trkpt lat="47.38335" lon="0.92">
        <ele>98.67</ele>
        <time>2019-04-09T09:01:54Z</time>
      </trkpt>
      <trkpt lat="47.38339" lon="0.92005">
        <ele>98.67</ele>
        <time>2019-04-09T09:01:59Z</time>
      </trkpt>
      <trkpt lat="47.3834" lon="0.92007">
        <ele>98.67</ele>
        <time>2019-04-09T09:02:00Z</time>
      </trkpt>
      <trkpt lat="47.38357" lon="0.92028">
        <ele>97.71</ele>
        <time>2019-04-09T09:02:16Z</time>
      </trkpt>
      <trkpt lat="47.38374" lon="0.92048">
        <ele>97.23</ele>
        <time>2019-04-09T09:02:33Z</time>
      </trkpt>
      <trkpt lat="47.3839" lon="0.92069">
        <ele>95.79</ele>
        <time>2019-04-09T09:02:48Z</time>
      </trkpt>
      <trkpt lat="47.38397" lon="0.92078">
        <ele>95.79</ele>
        <time>2019-04-09T09:02:56Z</time>
      </trkpt>
      <trkpt lat="47.384" lon="0.92082">
        <ele>95.79</ele>
        <time>2019-04-09T09:02:59Z</time>
      </trkpt>
      <trkpt lat="47.38411" lon="0.92093">
        <ele>95.79</ele>
        <time>2019-04-09T09:03:09Z</time>
      </trkpt>
      <trkpt lat="47.38411" lon="0.92094">
        <ele>95.79</ele>
        <time>2019-04-09T09:03:10Z</time>
      </trkpt>
      <trkpt lat="47.38412" lon="0.92095">
        <ele>95.31</ele>
        <time>2019-04-09T09:03:11Z</time>
      </trkpt>
      <trkpt lat="47.38425" lon="0.92108">
        <ele>94.83</ele>
        <time>2019-04-09T09:03:23Z</time>
      </trkpt>
      <trkpt lat="47.38426" lon="0.9211">
        <ele>94.83</ele>
        <time>2019-04-09T09:03:24Z</time>
      </trkpt>
      <trkpt lat="47.38427" lon="0.92111">
        <ele>94.83</ele>
        <time>2019-04-09T09:03:25Z</time>
      </trkpt>
      <trkpt lat="47.38445" lon="0.92133">
        <ele>94.83</ele>
        <time>2019-04-09T09:03:43Z</time>
      </trkpt>
      <trkpt lat="47.38462" lon="0.92154">
        <ele>94.35</ele>
        <time>2019-04-09T09:04:00Z</time>
      </trkpt>
      <trkpt lat="47.38476" lon="0.92171">
        <ele>94.35</ele>
        <time>2019-04-09T09:04:16Z</time>
      </trkpt>
      <trkpt lat="47.38477" lon="0.92174">
        <ele>93.39</ele>
        <time>2019-04-09T09:04:18Z</time>
      </trkpt>
      <trkpt lat="47.38488" lon="0.9219">
        <ele>94.35</ele>
        <time>2019-04-09T09:04:32Z</time>
      </trkpt>
      <trkpt lat="47.3849" lon="0.92194">
        <ele>93.87</ele>
        <time>2019-04-09T09:04:35Z</time>
      </trkpt>
      <trkpt lat="47.38504" lon="0.92208">
        <ele>94.35</ele>
        <time>2019-04-09T09:04:50Z</time>
      </trkpt>
      <trkpt lat="47.38515" lon="0.9222">
        <ele>94.35</ele>
        <time>2019-04-09T09:05:05Z</time>
      </trkpt>
      <trkpt lat="47.3852" lon="0.92222">
        <ele>94.35</ele>
        <time>2019-04-09T09:05:10Z</time>
      </trkpt>
      <trkpt lat="47.38521" lon="0.92223">
        <ele>94.35</ele>
        <time>2019-04-09T09:05:11Z</time>
      </trkpt>
      <trkpt lat="47.38535" lon="0.92229">
        <ele>94.35</ele>
        <time>2019-04-09T09:05:23Z</time>
      </trkpt>
      <trkpt lat="47.38551" lon="0.92232">
        <ele>94.83</ele>
        <time>2019-04-09T09:05:36Z</time>
      </trkpt>
      <trkpt lat="47.38553" lon="0.92233">
        <ele>94.83</ele>
        <time>2019-04-09T09:05:38Z</time>
      </trkpt>
      <trkpt lat="47.38562" lon="0.92236">
        <ele>94.83</ele>
        <time>2019-04-09T09:05:46Z</time>
      </trkpt>
      <trkpt lat="47.38572" lon="0.92241">
        <ele>94.83</ele>
        <time>2019-04-09T09:05:54Z</time>
      </trkpt>
      <trkpt lat="47.38586" lon="0.92243">
        <ele>94.35</ele>
        <time>2019-04-09T09:06:06Z</time>
      </trkpt>
      <trkpt lat="47.38597" lon="0.92239">
        <ele>93.87</ele>
        <time>2019-04-09T09:06:16Z</time>
      </trkpt>
      <trkpt lat="47.38614" lon="0.92234">
        <ele>93.39</ele>
        <time>2019-04-09T09:06:29Z</time>
      </trkpt>
      <trkpt lat="47.38631" lon="0.92229">
        <ele>93.39</ele>
        <time>2019-04-09T09:06:40Z</time>
      </trkpt>
      <trkpt lat="47.38632" lon="0.92229">
        <ele>92.9</ele>
        <time>2019-04-09T09:06:41Z</time>
      </trkpt>
      <trkpt lat="47.38651" lon="0.92216">
        <ele>92.42</ele>
        <time>2019-04-09T09:06:55Z</time>
      </trkpt>
      <trkpt lat="47.38665" lon="0.92202">
        <ele>92.42</ele>
        <time>2019-04-09T09:07:08Z</time>
      </trkpt>
      <trkpt lat="47.38666" lon="0.922">
        <ele>92.42</ele>
        <time>2019-04-09T09:07:09Z</time>
      </trkpt>
      <trkpt lat="47.38674" lon="0.92173">
        <ele>91.94</ele>
        <time>2019-04-09T09:07:26Z</time>
      </trkpt>
      <trkpt lat="47.38675" lon="0.92151">
        <ele>92.42</ele>
        <time>2019-04-09T09:07:38Z</time>
      </trkpt>
      <trkpt lat="47.38678" lon="0.92135">
        <ele>91.94</ele>
        <time>2019-04-09T09:07:47Z</time>
      </trkpt>
      <trkpt lat="47.38689" lon="0.92118">
        <ele>91.46</ele>
        <time>2019-04-09T09:08:01Z</time>
      </trkpt>
      <trkpt lat="47.38706" lon="0.92107">
        <ele>90.98</ele>
        <time>2019-04-09T09:08:15Z</time>
      </trkpt>
      <trkpt lat="47.38723" lon="0.92099">
        <ele>90.98</ele>
        <time>2019-04-09T09:08:29Z</time>
      </trkpt>
      <trkpt lat="47.38739" lon="0.92087">
        <ele>90.02</ele>
        <time>2019-04-09T09:08:45Z</time>
      </trkpt>
      <trkpt lat="47.38757" lon="0.92074">
        <ele>89.54</ele>
        <time>2019-04-09T09:09:02Z</time>
      </trkpt>
      <trkpt lat="47.38782" lon="0.92062">
        <ele>89.54</ele>
        <time>2019-04-09T09:09:22Z</time>
      </trkpt>
      <trkpt lat="47.38798" lon="0.92051">
        <ele>89.06</ele>
        <time>2019-04-09T09:09:37Z</time>
      </trkpt>
      <trkpt lat="47.38818" lon="0.92042">
        <ele>88.58</ele>
        <time>2019-04-09T09:09:52Z</time>
      </trkpt>
      <trkpt lat="47.38837" lon="0.92033">
        <ele>88.58</ele>
        <time>2019-04-09T09:10:07Z</time>
      </trkpt>
      <trkpt lat="47.38854" lon="0.92026">
        <ele>88.1</ele>
        <time>2019-04-09T09:10:21Z</time>
      </trkpt>
      <trkpt lat="47.38868" lon="0.92022">
        <ele>88.1</ele>
        <time>2019-04-09T09:10:34Z</time>
      </trkpt>
      <trkpt lat="47.38874" lon="0.9202">
        <ele>88.1</ele>
        <time>2019-04-09T09:10:39Z</time>
      </trkpt>
      <trkpt lat="47.38882" lon="0.92017">
        <ele>87.62</ele>
        <time>2019-04-09T09:10:46Z</time>
      </trkpt>
      <trkpt lat="47.38883" lon="0.92016">
        <ele>87.62</ele>
        <time>2019-04-09T09:10:47Z</time>
      </trkpt>
      <trkpt lat="47.38885" lon="0.92016">
        <ele>87.62</ele>
        <time>2019-04-09T09:10:48Z</time>
      </trkpt>
      <trkpt lat="47.389" lon="0.92009">
        <ele>87.62</ele>
        <time>2019-04-09T09:11:00Z</time>
      </trkpt>
      <trkpt lat="47.38919" lon="0.92005">
        <ele>87.14</ele>
        <time>2019-04-09T09:11:15Z</time>
      </trkpt>
      <trkpt lat="47.38936" lon="0.92009">
        <ele>87.14</ele>
        <time>2019-04-09T09:11:30Z</time>
      </trkpt>
      <trkpt lat="47.38953" lon="0.92015">
        <ele>86.66</ele>
        <time>2019-04-09T09:11:46Z</time>
      </trkpt>
      <trkpt lat="47.38961" lon="0.92017">
        <ele>86.66</ele>
        <time>2019-04-09T09:11:52Z</time>
      </trkpt>
      <trkpt lat="47.38979" lon="0.92023">
        <ele>86.18</ele>
        <time>2019-04-09T09:12:07Z</time>
      </trkpt>
      <trkpt lat="47.38996" lon="0.92027">
        <ele>85.69</ele>
        <time>2019-04-09T09:12:22Z</time>
      </trkpt>
      <trkpt lat="47.39012" lon="0.92028">
        <ele>85.21</ele>
        <time>2019-04-09T09:12:36Z</time>
      </trkpt>
      <trkpt lat="47.39013" lon="0.92027">
        <ele>85.21</ele>
        <time>2019-04-09T09:12:49Z</time>
      </trkpt>
      <trkpt lat="47.39014" lon="0.92027">
        <ele>85.21</ele>
        <time>2019-04-09T09:13:11Z</time>
      </trkpt>
      <trkpt lat="47.39018" lon="0.92026">
        <ele>85.21</ele>
        <time>2019-04-09T09:13:29Z</time>
      </trkpt>
      <trkpt lat="47.3902" lon="0.92027">
        <ele>85.21</ele>
        <time>2019-04-09T09:13:46Z</time>
      </trkpt>
      <trkpt lat="47.39026" lon="0.92032">
        <ele>85.21</ele>
        <time>2019-04-09T09:13:57Z</time>
      </trkpt>
      <trkpt lat="47.39027" lon="0.92033">
        <ele>85.21</ele>
        <time>2019-04-09T09:13:58Z</time>
      </trkpt>
      <trkpt lat="47.39041" lon="0.92068">
        <ele>83.29</ele>
        <time>2019-04-09T09:14:18Z</time>
      </trkpt>
      <trkpt lat="47.3905" lon="0.92095">
        <ele>83.29</ele>
        <time>2019-04-09T09:14:33Z</time>
      </trkpt>
      <trkpt lat="47.39057" lon="0.92112">
        <ele>83.29</ele>
        <time>2019-04-09T09:14:46Z</time>
      </trkpt>
      <trkpt lat="47.39069" lon="0.92139">
        <ele>83.29</ele>
        <time>2019-04-09T09:15:02Z</time>
      </trkpt>
      <trkpt lat="47.39072" lon="0.92146">
        <ele>83.29</ele>
        <time>2019-04-09T09:15:06Z</time>
      </trkpt>
      <trkpt lat="47.39077" lon="0.92163">
        <ele>82.81</ele>
        <time>2019-04-09T09:15:15Z</time>
      </trkpt>
      <trkpt lat="47.39078" lon="0.92166">
        <ele>84.25</ele>
        <time>2019-04-09T09:15:17Z</time>
      </trkpt>
      <trkpt lat="47.39079" lon="0.92167">
        <ele>83.77</ele>
        <time>2019-04-09T09:15:18Z</time>
      </trkpt>
      <trkpt lat="47.39079" lon="0.92168">
        <ele>83.77</ele>
        <time>2019-04-09T09:15:19Z</time>
      </trkpt>
      <trkpt lat="47.39088" lon="0.92184">
        <ele>84.73</ele>
        <time>2019-04-09T09:15:32Z</time>
      </trkpt>
      <trkpt lat="47.39101" lon="0.92208">
        <ele>85.69</ele>
        <time>2019-04-09T09:15:46Z</time>
      </trkpt>
      <trkpt lat="47.39114" lon="0.92235">
        <ele>86.18</ele>
        <time>2019-04-09T09:16:02Z</time>
      </trkpt>
      <trkpt lat="47.39122" lon="0.92248">
        <ele>86.18</ele>
        <time>2019-04-09T09:16:14Z</time>
      </trkpt>
      <trkpt lat="47.39136" lon="0.9228">
        <ele>86.66</ele>
        <time>2019-04-09T09:16:32Z</time>
      </trkpt>
      <trkpt lat="47.39137" lon="0.92282">
        <ele>86.66</ele>
        <time>2019-04-09T09:16:34Z</time>
      </trkpt>
      <trkpt lat="47.39138" lon="0.92285">
        <ele>87.14</ele>
        <time>2019-04-09T09:16:38Z</time>
      </trkpt>
      <trkpt lat="47.39139" lon="0.92288">
        <ele>87.14</ele>
        <time>2019-04-09T09:16:40Z</time>
      </trkpt>
      <trkpt lat="47.39139" lon="0.92289">
        <ele>87.14</ele>
        <time>2019-04-09T09:16:41Z</time>
      </trkpt>
      <trkpt lat="47.3914" lon="0.92291">
        <ele>87.14</ele>
        <time>2019-04-09T09:16:42Z</time>
      </trkpt>
      <trkpt lat="47.3914" lon="0.92293">
        <ele>87.14</ele>
        <time>2019-04-09T09:16:43Z</time>
      </trkpt>
      <trkpt lat="47.39141" lon="0.92294">
        <ele>87.14</ele>
        <time>2019-04-09T09:16:44Z</time>
      </trkpt>
      <trkpt lat="47.39153" lon="0.92298">
        <ele>87.14</ele>
        <time>2019-04-09T09:16:57Z</time>
      </trkpt>
      <trkpt lat="47.3918" lon="0.92295">
        <ele>87.62</ele>
        <time>2019-04-09T09:17:16Z</time>
      </trkpt>
      <trkpt lat="47.39187" lon="0.92295">
        <ele>87.62</ele>
        <time>2019-04-09T09:17:24Z</time>
      </trkpt>
      <trkpt lat="47.39188" lon="0.92295">
        <ele>87.62</ele>
        <time>2019-04-09T09:17:25Z</time>
      </trkpt>
      <trkpt lat="47.3919" lon="0.92294">
        <ele>87.62</ele>
        <time>2019-04-09T09:17:26Z</time>
      </trkpt>
      <trkpt lat="47.39197" lon="0.92293">
        <ele>87.62</ele>
        <time>2019-04-09T09:17:36Z</time>
      </trkpt>
      <trkpt lat="47.39218" lon="0.9229">
        <ele>88.1</ele>
        <time>2019-04-09T09:17:53Z</time>
      </trkpt>
      <trkpt lat="47.39238" lon="0.92284">
        <ele>88.1</ele>
        <time>2019-04-09T09:18:09Z</time>
      </trkpt>
      <trkpt lat="47.39251" lon="0.92276">
        <ele>88.1</ele>
        <time>2019-04-09T09:18:20Z</time>
      </trkpt>
      <trkpt lat="47.39253" lon="0.92276">
        <ele>88.1</ele>
        <time>2019-04-09T09:18:21Z</time>
      </trkpt>
      <trkpt lat="47.39272" lon="0.92266">
        <ele>88.1</ele>
        <time>2019-04-09T09:18:37Z</time>
      </trkpt>
      <trkpt lat="47.39287" lon="0.92258">
        <ele>88.58</ele>
        <time>2019-04-09T09:18:51Z</time>
      </trkpt>
      <trkpt lat="47.39289" lon="0.92257">
        <ele>88.58</ele>
        <time>2019-04-09T09:18:52Z</time>
      </trkpt>
      <trkpt lat="47.3929" lon="0.92256">
        <ele>88.58</ele>
        <time>2019-04-09T09:18:53Z</time>
      </trkpt>
      <trkpt lat="47.39291" lon="0.92255">
        <ele>88.58</ele>
        <time>2019-04-09T09:18:54Z</time>
      </trkpt>
      <trkpt lat="47.39293" lon="0.92254">
        <ele>88.58</ele>
        <time>2019-04-09T09:18:55Z</time>
      </trkpt>
      <trkpt lat="47.39307" lon="0.92247">
        <ele>88.58</ele>
        <time>2019-04-09T09:19:06Z</time>
      </trkpt>
      <trkpt lat="47.39308" lon="0.92246">
        <ele>88.58</ele>
        <time>2019-04-09T09:19:07Z</time>
      </trkpt>
      <trkpt lat="47.3931" lon="0.92245">
        <ele>88.58</ele>
        <time>2019-04-09T09:19:08Z</time>
      </trkpt>
      <trkpt lat="47.39311" lon="0.92245">
        <ele>88.58</ele>
        <time>2019-04-09T09:19:09Z</time>
      </trkpt>
      <trkpt lat="47.39312" lon="0.92244">
        <ele>88.58</ele>
        <time>2019-04-09T09:19:10Z</time>
      </trkpt>
      <trkpt lat="47.39313" lon="0.92243">
        <ele>89.06</ele>
        <time>2019-04-09T09:19:11Z</time>
      </trkpt>
      <trkpt lat="47.39314" lon="0.92243">
        <ele>89.06</ele>
        <time>2019-04-09T09:19:12Z</time>
      </trkpt>
      <trkpt lat="47.39316" lon="0.92242">
        <ele>89.06</ele>
        <time>2019-04-09T09:19:13Z</time>
      </trkpt>
      <trkpt lat="47.39317" lon="0.92242">
        <ele>89.06</ele>
        <time>2019-04-09T09:19:14Z</time>
      </trkpt>
      <trkpt lat="47.39319" lon="0.92241">
        <ele>89.06</ele>
        <time>2019-04-09T09:19:15Z</time>
      </trkpt>
      <trkpt lat="47.3932" lon="0.92241">
        <ele>89.06</ele>
        <time>2019-04-09T09:19:16Z</time>
      </trkpt>
      <trkpt lat="47.39339" lon="0.92232">
        <ele>89.06</ele>
        <time>2019-04-09T09:19:32Z</time>
      </trkpt>
      <trkpt lat="47.39361" lon="0.92223">
        <ele>90.02</ele>
        <time>2019-04-09T09:19:49Z</time>
      </trkpt>
      <trkpt lat="47.39369" lon="0.9222">
        <ele>90.02</ele>
        <time>2019-04-09T09:19:55Z</time>
      </trkpt>
      <trkpt lat="47.3937" lon="0.92219">
        <ele>90.02</ele>
        <time>2019-04-09T09:19:56Z</time>
      </trkpt>
      <trkpt lat="47.39371" lon="0.92218">
        <ele>90.02</ele>
        <time>2019-04-09T09:19:57Z</time>
      </trkpt>
      <trkpt lat="47.39392" lon="0.92214">
        <ele>90.5</ele>
        <time>2019-04-09T09:20:14Z</time>
      </trkpt>
      <trkpt lat="47.3941" lon="0.9221">
        <ele>90.02</ele>
        <time>2019-04-09T09:20:29Z</time>
      </trkpt>
      <trkpt lat="47.39432" lon="0.92207">
        <ele>90.02</ele>
        <time>2019-04-09T09:20:45Z</time>
      </trkpt>
      <trkpt lat="47.39453" lon="0.92204">
        <ele>89.54</ele>
        <time>2019-04-09T09:21:01Z</time>
      </trkpt>
      <trkpt lat="47.39475" lon="0.92199">
        <ele>89.06</ele>
        <time>2019-04-09T09:21:18Z</time>
      </trkpt>
      <trkpt lat="47.39494" lon="0.92195">
        <ele>89.06</ele>
        <time>2019-04-09T09:21:33Z</time>
      </trkpt>
      <trkpt lat="47.39512" lon="0.9219">
        <ele>88.58</ele>
        <time>2019-04-09T09:21:48Z</time>
      </trkpt>
      <trkpt lat="47.3953" lon="0.92188">
        <ele>87.62</ele>
        <time>2019-04-09T09:22:02Z</time>
      </trkpt>
      <trkpt lat="47.39551" lon="0.92182">
        <ele>87.14</ele>
        <time>2019-04-09T09:22:20Z</time>
      </trkpt>
      <trkpt lat="47.39567" lon="0.92179">
        <ele>86.66</ele>
        <time>2019-04-09T09:22:33Z</time>
      </trkpt>
      <trkpt lat="47.39568" lon="0.92179">
        <ele>86.66</ele>
        <time>2019-04-09T09:22:34Z</time>
      </trkpt>
      <trkpt lat="47.3957" lon="0.92179">
        <ele>86.66</ele>
        <time>2019-04-09T09:22:35Z</time>
      </trkpt>
      <trkpt lat="47.39571" lon="0.92179">
        <ele>86.66</ele>
        <time>2019-04-09T09:22:36Z</time>
      </trkpt>
      <trkpt lat="47.39575" lon="0.92178">
        <ele>86.66</ele>
        <time>2019-04-09T09:22:39Z</time>
      </trkpt>
      <trkpt lat="47.39576" lon="0.92177">
        <ele>86.66</ele>
        <time>2019-04-09T09:22:40Z</time>
      </trkpt>
      <trkpt lat="47.39577" lon="0.92176">
        <ele>86.18</ele>
        <time>2019-04-09T09:22:41Z</time>
      </trkpt>
      <trkpt lat="47.39578" lon="0.92175">
        <ele>86.18</ele>
        <time>2019-04-09T09:22:42Z</time>
      </trkpt>
      <trkpt lat="47.39579" lon="0.92174">
        <ele>86.18</ele>
        <time>2019-04-09T09:22:43Z</time>
      </trkpt>
      <trkpt lat="47.39581" lon="0.92174">
        <ele>86.18</ele>
        <time>2019-04-09T09:22:44Z</time>
      </trkpt>
      <trkpt lat="47.39582" lon="0.92173">
        <ele>86.18</ele>
        <time>2019-04-09T09:22:45Z</time>
      </trkpt>
      <trkpt lat="47.39583" lon="0.92173">
        <ele>86.18</ele>
        <time>2019-04-09T09:22:46Z</time>
      </trkpt>
      <trkpt lat="47.39601" lon="0.92167">
        <ele>85.69</ele>
        <time>2019-04-09T09:23:01Z</time>
      </trkpt>
      <trkpt lat="47.39618" lon="0.92157">
        <ele>84.73</ele>
        <time>2019-04-09T09:23:16Z</time>
      </trkpt>
      <trkpt lat="47.39621" lon="0.92158">
        <ele>84.73</ele>
        <time>2019-04-09T09:23:20Z</time>
      </trkpt>
      <trkpt lat="47.39623" lon="0.92158">
        <ele>84.73</ele>
        <time>2019-04-09T09:23:21Z</time>
      </trkpt>
      <trkpt lat="47.39643" lon="0.92149">
        <ele>83.77</ele>
        <time>2019-04-09T09:23:37Z</time>
      </trkpt>
      <trkpt lat="47.39663" lon="0.92139">
        <ele>82.81</ele>
        <time>2019-04-09T09:23:54Z</time>
      </trkpt>
      <trkpt lat="47.39673" lon="0.92134">
        <ele>82.33</ele>
        <time>2019-04-09T09:24:03Z</time>
      </trkpt>
      <trkpt lat="47.39674" lon="0.92133">
        <ele>82.33</ele>
        <time>2019-04-09T09:24:04Z</time>
      </trkpt>
      <trkpt lat="47.3969" lon="0.92125">
        <ele>81.37</ele>
        <time>2019-04-09T09:24:18Z</time>
      </trkpt>
      <trkpt lat="47.39709" lon="0.92119">
        <ele>79.45</ele>
        <time>2019-04-09T09:24:33Z</time>
      </trkpt>
      <trkpt lat="47.39724" lon="0.92116">
        <ele>78</ele>
        <time>2019-04-09T09:24:46Z</time>
      </trkpt>
      <trkpt lat="47.39735" lon="0.92111">
        <ele>76.56</ele>
        <time>2019-04-09T09:24:59Z</time>
      </trkpt>
      <trkpt lat="47.3975" lon="0.92108">
        <ele>74.16</ele>
        <time>2019-04-09T09:25:13Z</time>
      </trkpt>
      <trkpt lat="47.39765" lon="0.92119">
        <ele>71.27</ele>
        <time>2019-04-09T09:25:28Z</time>
      </trkpt>
      <trkpt lat="47.39773" lon="0.9213">
        <ele>67.91</ele>
        <time>2019-04-09T09:25:42Z</time>
      </trkpt>
      <trkpt lat="47.39782" lon="0.92132">
        <ele>65.03</ele>
        <time>2019-04-09T09:25:56Z</time>
      </trkpt>
      <trkpt lat="47.39785" lon="0.92124">
        <ele>63.1</ele>
        <time>2019-04-09T09:26:07Z</time>
      </trkpt>
      <trkpt lat="47.39792" lon="0.92119">
        <ele>60.7</ele>
        <time>2019-04-09T09:26:18Z</time>
      </trkpt>
      <trkpt lat="47.39801" lon="0.92115">
        <ele>57.82</ele>
        <time>2019-04-09T09:26:32Z</time>
      </trkpt>
      <trkpt lat="47.39816" lon="0.92109">
        <ele>57.34</ele>
        <time>2019-04-09T09:26:44Z</time>
      </trkpt>
      <trkpt lat="47.39824" lon="0.92111">
        <ele>57.34</ele>
        <time>2019-04-09T09:26:49Z</time>
      </trkpt>
      <trkpt lat="47.39825" lon="0.92114">
        <ele>57.82</ele>
        <time>2019-04-09T09:27:02Z</time>
      </trkpt>
      <trkpt lat="47.39825" lon="0.92113">
        <ele>57.82</ele>
        <time>2019-04-09T09:27:29Z</time>
      </trkpt>
      <trkpt lat="47.39823" lon="0.92127">
        <ele>58.3</ele>
        <time>2019-04-09T09:27:52Z</time>
      </trkpt>
      <trkpt lat="47.39821" lon="0.92116">
        <ele>58.3</ele>
        <time>2019-04-09T09:28:18Z</time>
      </trkpt>
      <trkpt lat="47.39819" lon="0.92116">
        <ele>58.3</ele>
        <time>2019-04-09T09:28:45Z</time>
      </trkpt>
      <trkpt lat="47.39821" lon="0.92115">
        <ele>57.82</ele>
        <time>2019-04-09T09:29:08Z</time>
      </trkpt>
      <trkpt lat="47.39817" lon="0.92114">
        <ele>58.3</ele>
        <time>2019-04-09T09:29:35Z</time>
      </trkpt>
      <trkpt lat="47.39817" lon="0.92102">
        <ele>57.82</ele>
        <time>2019-04-09T09:29:57Z</time>
      </trkpt>
      <trkpt lat="47.39812" lon="0.92104">
        <ele>57.82</ele>
        <time>2019-04-09T09:30:10Z</time>
      </trkpt>
      <trkpt lat="47.39816" lon="0.92102">
        <ele>57.82</ele>
        <time>2019-04-09T09:30:15Z</time>
      </trkpt>
      <trkpt lat="47.39817" lon="0.92102">
        <ele>57.82</ele>
        <time>2019-04-09T09:30:16Z</time>
      </trkpt>
      <trkpt lat="47.3982" lon="0.92105">
        <ele>57.82</ele>
        <time>2019-04-09T09:30:28Z</time>
      </trkpt>
      <trkpt lat="47.39821" lon="0.92104">
        <ele>57.82</ele>
        <time>2019-04-09T09:30:39Z</time>
      </trkpt>
      <trkpt lat="47.39821" lon="0.92103">
        <ele>57.82</ele>
        <time>2019-04-09T09:30:58Z</time>
      </trkpt>
      <trkpt lat="47.39822" lon="0.92104">
        <ele>57.82</ele>
        <time>2019-04-09T09:31:00Z</time>
      </trkpt>
      <trkpt lat="47.39823" lon="0.92105">
        <ele>57.82</ele>
        <time>2019-04-09T09:31:01Z</time>
      </trkpt>
      <trkpt lat="47.39829" lon="0.92109">
        <ele>57.34</ele>
        <time>2019-04-09T09:31:07Z</time>
      </trkpt>
      <trkpt lat="47.39829" lon="0.92111">
        <ele>57.82</ele>
        <time>2019-04-09T09:31:08Z</time>
      </trkpt>
      <trkpt lat="47.39831" lon="0.92117">
        <ele>57.34</ele>
        <time>2019-04-09T09:31:11Z</time>
      </trkpt>
      <trkpt lat="47.39831" lon="0.92122">
        <ele>57.82</ele>
        <time>2019-04-09T09:31:13Z</time>
      </trkpt>
      <trkpt lat="47.39831" lon="0.92124">
        <ele>57.34</ele>
        <time>2019-04-09T09:31:14Z</time>
      </trkpt>
      <trkpt lat="47.3983" lon="0.92148">
        <ele>57.82</ele>
        <time>2019-04-09T09:31:30Z</time>
      </trkpt>
      <trkpt lat="47.39827" lon="0.92146">
        <ele>57.82</ele>
        <time>2019-04-09T09:31:46Z</time>
      </trkpt>
      <trkpt lat="47.39828" lon="0.92145">
        <ele>58.3</ele>
        <time>2019-04-09T09:31:53Z</time>
      </trkpt>
      <trkpt lat="47.3983" lon="0.92146">
        <ele>57.82</ele>
        <time>2019-04-09T09:31:54Z</time>
      </trkpt>
      <trkpt lat="47.39831" lon="0.92147">
        <ele>58.3</ele>
        <time>2019-04-09T09:31:55Z</time>
      </trkpt>
      <trkpt lat="47.39843" lon="0.9217">
        <ele>58.3</ele>
        <time>2019-04-09T09:32:10Z</time>
      </trkpt>
      <trkpt lat="47.39841" lon="0.92175">
        <ele>58.3</ele>
        <time>2019-04-09T09:32:22Z</time>
      </trkpt>
      <trkpt lat="47.39841" lon="0.92176">
        <ele>58.3</ele>
        <time>2019-04-09T09:32:25Z</time>
      </trkpt>
      <trkpt lat="47.39841" lon="0.92178">
        <ele>58.3</ele>
        <time>2019-04-09T09:32:26Z</time>
      </trkpt>
      <trkpt lat="47.39843" lon="0.92208">
        <ele>58.3</ele>
        <time>2019-04-09T09:32:41Z</time>
      </trkpt>
      <trkpt lat="47.39843" lon="0.92226">
        <ele>58.3</ele>
        <time>2019-04-09T09:32:52Z</time>
      </trkpt>
      <trkpt lat="47.39843" lon="0.92227">
        <ele>58.3</ele>
        <time>2019-04-09T09:32:53Z</time>
      </trkpt>
      <trkpt lat="47.39842" lon="0.9224">
        <ele>58.78</ele>
        <time>2019-04-09T09:33:01Z</time>
      </trkpt>
      <trkpt lat="47.39842" lon="0.92241">
        <ele>58.78</ele>
        <time>2019-04-09T09:33:02Z</time>
      </trkpt>
      <trkpt lat="47.39843" lon="0.92243">
        <ele>58.78</ele>
        <time>2019-04-09T09:33:03Z</time>
      </trkpt>
      <trkpt lat="47.39843" lon="0.92249">
        <ele>58.78</ele>
        <time>2019-04-09T09:33:07Z</time>
      </trkpt>
      <trkpt lat="47.39843" lon="0.92251">
        <ele>58.78</ele>
        <time>2019-04-09T09:33:08Z</time>
      </trkpt>
      <trkpt lat="47.39843" lon="0.92252">
        <ele>58.78</ele>
        <time>2019-04-09T09:33:09Z</time>
      </trkpt>
      <trkpt lat="47.39843" lon="0.92254">
        <ele>58.78</ele>
        <time>2019-04-09T09:33:10Z</time>
      </trkpt>
      <trkpt lat="47.39844" lon="0.92281">
        <ele>59.26</ele>
        <time>2019-04-09T09:33:26Z</time>
      </trkpt>
      <trkpt lat="47.39844" lon="0.92283">
        <ele>59.26</ele>
        <time>2019-04-09T09:33:27Z</time>
      </trkpt>
      <trkpt lat="47.39844" lon="0.92297">
        <ele>59.26</ele>
        <time>2019-04-09T09:33:36Z</time>
      </trkpt>
      <trkpt lat="47.39844" lon="0.92299">
        <ele>59.26</ele>
        <time>2019-04-09T09:33:37Z</time>
      </trkpt>
      <trkpt lat="47.39845" lon="0.92321">
        <ele>59.74</ele>
        <time>2019-04-09T09:33:52Z</time>
      </trkpt>
      <trkpt lat="47.39843" lon="0.92342">
        <ele>59.74</ele>
        <time>2019-04-09T09:34:04Z</time>
      </trkpt>
      <trkpt lat="47.39845" lon="0.92375">
        <ele>59.74</ele>
        <time>2019-04-09T09:34:23Z</time>
      </trkpt>
      <trkpt lat="47.39847" lon="0.92404">
        <ele>59.74</ele>
        <time>2019-04-09T09:34:40Z</time>
      </trkpt>
      <trkpt lat="47.39848" lon="0.92418">
        <ele>59.74</ele>
        <time>2019-04-09T09:34:48Z</time>
      </trkpt>
      <trkpt lat="47.39848" lon="0.9242">
        <ele>59.74</ele>
        <time>2019-04-09T09:34:49Z</time>
      </trkpt>
      <trkpt lat="47.39849" lon="0.92425">
        <ele>59.74</ele>
        <time>2019-04-09T09:34:52Z</time>
      </trkpt>
      <trkpt lat="47.39849" lon="0.92427">
        <ele>59.74</ele>
        <time>2019-04-09T09:34:53Z</time>
      </trkpt>
      <trkpt lat="47.39847" lon="0.92432">
        <ele>59.74</ele>
        <time>2019-04-09T09:34:56Z</time>
      </trkpt>
      <trkpt lat="47.39849" lon="0.92456">
        <ele>60.22</ele>
        <time>2019-04-09T09:35:11Z</time>
      </trkpt>
      <trkpt lat="47.39851" lon="0.92489">
        <ele>59.74</ele>
        <time>2019-04-09T09:35:28Z</time>
      </trkpt>
      <trkpt lat="47.39852" lon="0.92491">
        <ele>59.74</ele>
        <time>2019-04-09T09:35:29Z</time>
      </trkpt>
      <trkpt lat="47.39853" lon="0.92493">
        <ele>59.74</ele>
        <time>2019-04-09T09:35:30Z</time>
      </trkpt>
      <trkpt lat="47.39853" lon="0.92504">
        <ele>59.74</ele>
        <time>2019-04-09T09:35:42Z</time>
      </trkpt>
      <trkpt lat="47.39853" lon="0.92511">
        <ele>59.74</ele>
        <time>2019-04-09T09:35:56Z</time>
      </trkpt>
      <trkpt lat="47.39862" lon="0.92519">
        <ele>58.78</ele>
        <time>2019-04-09T09:36:08Z</time>
      </trkpt>
      <trkpt lat="47.39863" lon="0.92519">
        <ele>58.78</ele>
        <time>2019-04-09T09:36:09Z</time>
      </trkpt>
      <trkpt lat="47.3987" lon="0.92515">
        <ele>57.34</ele>
        <time>2019-04-09T09:36:16Z</time>
      </trkpt>
      <trkpt lat="47.39871" lon="0.92516">
        <ele>57.34</ele>
        <time>2019-04-09T09:36:17Z</time>
      </trkpt>
      <trkpt lat="47.39872" lon="0.92515">
        <ele>57.34</ele>
        <time>2019-04-09T09:36:18Z</time>
      </trkpt>
      <trkpt lat="47.39876" lon="0.9251">
        <ele>56.37</ele>
        <time>2019-04-09T09:36:23Z</time>
      </trkpt>
      <trkpt lat="47.39872" lon="0.9251">
        <ele>56.37</ele>
        <time>2019-04-09T09:36:33Z</time>
      </trkpt>
      <trkpt lat="47.39872" lon="0.92508">
        <ele>56.37</ele>
        <time>2019-04-09T09:36:44Z</time>
      </trkpt>
    </trkseg>
  </trk>
</gpx>